Wetterdaten: Samstag, 18.11.2023
Datum Zeit Temp. Aussen Temp. o. S. Temp +5cm Feuchte Auss Luftdruck Regen Sonnenschein Regendauer Solar Windben Empfang
18.11.2023 00:00 3,8 C 3,3 C 1,7 C 98 % 1025,0 hPa 0,0 l/m 0 min 0 min 0 W/m 6,4 km/h (2 Bft) 97,83 %
18.11.2023 00:02 3,8 C 3,3 C 1,7 C 98 % 1025,0 hPa 0,0 l/m 0 min 0 min 0 W/m 3,2 km/h (1 Bft) 97,73 %
18.11.2023 00:04 3,8 C 3,3 C 1,7 C 98 % 1025,1 hPa 0,0 l/m 0 min 0 min 0 W/m 3,2 km/h (1 Bft) 97,62 %
18.11.2023 00:10 3,9 C 3,3 C 1,7 C 98 % 1025,1 hPa 0,0 l/m 0 min 0 min 0 W/m 6,4 km/h (2 Bft) 94,29 %
18.11.2023 00:12 3,9 C 3,3 C 1,7 C 98 % 1025,1 hPa 0,0 l/m 0 min 0 min 0 W/m 3,2 km/h (1 Bft) 95,74 %
18.11.2023 00:16 3,9 C 3,3 C 1,7 C 98 % 1025,2 hPa 0,0 l/m 0 min 0 min 0 W/m 3,2 km/h (1 Bft) 94,68 %
18.11.2023 00:18 3,9 C 3,3 C 1,7 C 98 % 1025,2 hPa 0,0 l/m 0 min 0 min 0 W/m 12,9 km/h (3 Bft) 93,62 %
18.11.2023 00:20 4,0 C 3,3 C 1,7 C 98 % 1025,2 hPa 0,0 l/m 0 min 0 min 0 W/m 12,9 km/h (3 Bft) 95,74 %
18.11.2023 00:22 4,0 C 3,3 C 1,7 C 98 % 1025,1 hPa 0,0 l/m 0 min 0 min 0 W/m 6,4 km/h (2 Bft) 96,36 %
18.11.2023 00:24 4,0 C 3,3 C 1,7 C 98 % 1025,1 hPa 0,0 l/m 0 min 0 min 0 W/m 6,4 km/h (2 Bft) 94,74 %
18.11.2023 00:26 4,0 C 3,3 C 1,7 C 98 % 1025,1 hPa 0,0 l/m 0 min 0 min 0 W/m 6,4 km/h (2 Bft) 95,74 %
18.11.2023 00:28 4,0 C 3,3 C 1,7 C 98 % 1025,1 hPa 0,0 l/m 0 min 0 min 0 W/m 6,4 km/h (2 Bft) 93,48 %
18.11.2023 00:30 4,0 C 3,3 C 1,7 C 98 % 1025,1 hPa 0,0 l/m 0 min 0 min 0 W/m 3,2 km/h (1 Bft) 95,74 %
18.11.2023 00:32 4,0 C 3,3 C 1,7 C 98 % 1025,1 hPa 0,0 l/m 0 min 0 min 0 W/m 3,2 km/h (1 Bft) 95,74 %
18.11.2023 00:34 4,0 C 3,3 C 1,7 C 98 % 1025,0 hPa 0,0 l/m 0 min 0 min 0 W/m 6,4 km/h (2 Bft) 95,74 %
18.11.2023 00:36 4,0 C 3,3 C 1,7 C 98 % 1025,0 hPa 0,0 l/m 0 min 0 min 0 W/m 12,9 km/h (3 Bft) 93,62 %
18.11.2023 00:38 4,0 C 3,3 C 1,7 C 98 % 1025,1 hPa 0,0 l/m 0 min 0 min 0 W/m 3,2 km/h (1 Bft) 95,74 %
18.11.2023 00:40 4,0 C 3,3 C 1,7 C 98 % 1025,0 hPa 0,0 l/m 0 min 0 min 0 W/m 9,7 km/h (2 Bft) 97,87 %
18.11.2023 00:42 4,0 C 3,3 C 1,7 C 98 % 1024,9 hPa 0,0 l/m 0 min 0 min 0 W/m 12,9 km/h (3 Bft) 95,65 %
18.11.2023 00:44 4,0 C 3,3 C 1,7 C 98 % 1024,9 hPa 0,0 l/m 0 min 0 min 0 W/m 12,9 km/h (3 Bft) 97,87 %
18.11.2023 00:46 4,1 C 3,3 C 1,7 C 98 % 1025,0 hPa 0,0 l/m 0 min 0 min 0 W/m 6,4 km/h (2 Bft) 97,87 %
18.11.2023 00:48 4,1 C 3,3 C 1,7 C 98 % 1025,0 hPa 0,0 l/m 0 min 0 min 0 W/m 12,9 km/h (3 Bft) 95,74 %
18.11.2023 00:50 4,1 C 3,3 C 1,7 C 98 % 1025,0 hPa 0,0 l/m 0 min 0 min 0 W/m 6,4 km/h (2 Bft) 95,74 %
18.11.2023 00:52 4,1 C 3,3 C 1,7 C 98 % 1025,0 hPa 0,0 l/m 0 min 0 min 0 W/m 6,4 km/h (2 Bft) 97,87 %
18.11.2023 00:54 4,1 C 3,3 C 1,7 C 98 % 1025,0 hPa 0,0 l/m 0 min 0 min 0 W/m 6,4 km/h (2 Bft) 97,87 %
18.11.2023 00:56 4,1 C 3,3 C 1,7 C 98 % 1025,0 hPa 0,0 l/m 0 min 0 min 0 W/m 3,2 km/h (1 Bft) 97,87 %
18.11.2023 00:58 4,1 C 3,3 C 1,7 C 98 % 1025,1 hPa 0,0 l/m 0 min 0 min 0 W/m 6,4 km/h (2 Bft) 97,87 %
18.11.2023 01:00 4,1 C 3,3 C 1,7 C 98 % 1025,1 hPa 0,0 l/m 0 min 0 min 0 W/m 16,1 km/h (3 Bft) 97,87 %
18.11.2023 01:02 4,1 C 3,3 C 1,7 C 98 % 1025,1 hPa 0,0 l/m 0 min 0 min 0 W/m 3,2 km/h (1 Bft) 95,74 %
18.11.2023 01:04 4,1 C 3,3 C 1,7 C 98 % 1025,2 hPa 0,0 l/m 0 min 0 min 0 W/m 3,2 km/h (1 Bft) 98,04 %
18.11.2023 01:08 4,1 C 3,3 C 1,7 C 98 % 1025,2 hPa 0,0 l/m 0 min 0 min 0 W/m 12,9 km/h (3 Bft) 97,65 %
18.11.2023 01:09 4,1 C 3,3 C 1,7 C 98 % 1025,2 hPa 0,0 l/m 0 min 0 min 0 W/m 3,2 km/h (1 Bft) 100,00 %
18.11.2023 01:10 4,1 C 3,3 C 1,7 C 98 % 1025,2 hPa 0,0 l/m 0 min 0 min 0 W/m 12,9 km/h (3 Bft) 100,00 %
18.11.2023 01:14 4,1 C 3,3 C 1,7 C 98 % 1025,2 hPa 0,0 l/m 0 min 0 min 0 W/m 6,4 km/h (2 Bft) 80,00 %
18.11.2023 01:16 4,1 C 3,3 C 1,7 C 98 % 1025,2 hPa 0,0 l/m 0 min 0 min 0 W/m 12,9 km/h (3 Bft) 97,87 %
18.11.2023 01:18 4,1 C 3,3 C 1,7 C 98 % 1025,2 hPa 0,0 l/m 0 min 0 min 0 W/m 3,2 km/h (1 Bft) 100,00 %
18.11.2023 01:20 4,1 C 3,3 C 1,7 C 98 % 1025,2 hPa 0,0 l/m 0 min 0 min 0 W/m 3,2 km/h (1 Bft) 97,83 %
18.11.2023 01:22 4,1 C 3,3 C 1,7 C 98 % 1025,2 hPa 0,0 l/m 0 min 0 min 0 W/m 3,2 km/h (1 Bft) 100,00 %
18.11.2023 01:24 4,1 C 3,3 C 1,7 C 98 % 1025,1 hPa 0,0 l/m 0 min 0 min 0 W/m 3,2 km/h (1 Bft) 100,00 %
18.11.2023 01:26 4,1 C 3,3 C 1,7 C 98 % 1025,2 hPa 0,0 l/m 0 min 0 min 0 W/m 3,2 km/h (1 Bft) 100,00 %
18.11.2023 01:28 4,1 C 3,3 C 1,7 C 98 % 1025,2 hPa 0,0 l/m 0 min 0 min 0 W/m 3,2 km/h (1 Bft) 100,00 %
18.11.2023 01:30 4,1 C 3,3 C 1,7 C 98 % 1025,2 hPa 0,0 l/m 0 min 0 min 0 W/m 12,9 km/h (3 Bft) 100,00 %
18.11.2023 01:32 4,1 C 3,3 C 1,7 C 98 % 1025,1 hPa 0,0 l/m 0 min 0 min 0 W/m 3,2 km/h (1 Bft) 97,87 %
18.11.2023 01:34 4,1 C 3,3 C 1,7 C 98 % 1025,1 hPa 0,0 l/m 0 min 0 min 0 W/m 6,4 km/h (2 Bft) 97,83 %
18.11.2023 01:36 4,1 C 3,3 C 1,7 C 98 % 1025,1 hPa 0,0 l/m 0 min 0 min 0 W/m 6,4 km/h (2 Bft) 97,87 %
18.11.2023 01:38 4,1 C 3,3 C 1,7 C 98 % 1025,0 hPa 0,0 l/m 0 min 0 min 0 W/m 6,4 km/h (2 Bft) 97,87 %
18.11.2023 01:40 4,1 C 3,3 C 1,7 C 98 % 1025,0 hPa 0,0 l/m 0 min 0 min 0 W/m 6,4 km/h (2 Bft) 100,00 %
18.11.2023 01:42 4,1 C 3,3 C 1,7 C 98 % 1025,0 hPa 0,0 l/m 0 min 0 min 0 W/m 6,4 km/h (2 Bft) 100,00 %
18.11.2023 01:44 4,1 C 3,3 C 1,7 C 98 % 1024,9 hPa 0,0 l/m 0 min 0 min 0 W/m 6,4 km/h (2 Bft) 97,87 %
18.11.2023 01:46 4,1 C 3,3 C 1,7 C 98 % 1024,9 hPa 0,0 l/m 0 min 0 min 0 W/m 3,2 km/h (1 Bft) 100,00 %
18.11.2023 01:48 4,1 C 3,3 C 1,7 C 98 % 1024,9 hPa 0,0 l/m 0 min 0 min 0 W/m 6,4 km/h (2 Bft) 100,00 %
18.11.2023 01:50 4,1 C 3,3 C 1,7 C 98 % 1024,9 hPa 0,0 l/m 0 min 0 min 0 W/m 6,4 km/h (2 Bft) 97,83 %
18.11.2023 01:52 4,1 C 3,3 C 1,7 C 98 % 1024,9 hPa 0,0 l/m 0 min 0 min 0 W/m 3,2 km/h (1 Bft) 100,00 %
18.11.2023 01:54 4,1 C 3,3 C 1,7 C 98 % 1024,8 hPa 0,0 l/m 0 min 0 min 0 W/m 3,2 km/h (1 Bft) 98,11 %
18.11.2023 01:56 4,1 C 3,3 C 1,7 C 98 % 1024,8 hPa 0,0 l/m 0 min 0 min 0 W/m 12,9 km/h (3 Bft) 97,92 %
18.11.2023 01:58 4,1 C 3,3 C 1,7 C 98 % 1024,8 hPa 0,0 l/m 0 min 0 min 0 W/m 6,4 km/h (2 Bft) 95,83 %
18.11.2023 02:00 4,1 C 3,3 C 1,7 C 98 % 1024,8 hPa 0,0 l/m 0 min 0 min 0 W/m 6,4 km/h (2 Bft) 97,37 %
18.11.2023 02:02 4,1 C 3,3 C 1,7 C 98 % 1024,8 hPa 0,0 l/m 0 min 0 min 0 W/m 12,9 km/h (3 Bft) 93,62 %
18.11.2023 02:04 4,1 C 3,3 C 1,7 C 98 % 1024,8 hPa 0,0 l/m 0 min 0 min 0 W/m 16,1 km/h (3 Bft) 97,78 %
18.11.2023 02:06 4,1 C 3,3 C 1,7 C 98 % 1024,8 hPa 0,0 l/m 0 min 0 min 0 W/m 12,9 km/h (3 Bft) 96,61 %
18.11.2023 02:08 4,1 C 3,3 C 1,7 C 98 % 1024,8 hPa 0,0 l/m 0 min 0 min 0 W/m 3,2 km/h (1 Bft) 97,14 %
18.11.2023 02:10 4,1 C 3,3 C 1,7 C 98 % 1024,9 hPa 0,0 l/m 0 min 0 min 0 W/m 12,9 km/h (3 Bft) 95,74 %
18.11.2023 02:18 4,1 C 3,3 C 1,7 C 98 % 1024,9 hPa 0,0 l/m 0 min 0 min 0 W/m 12,9 km/h (3 Bft) 100,00 %
18.11.2023 02:20 4,1 C 3,3 C 1,7 C 98 % 1024,9 hPa 0,0 l/m 0 min 0 min 0 W/m 6,4 km/h (2 Bft) 95,74 %
18.11.2023 02:22 4,1 C 3,3 C 1,7 C 98 % 1025,0 hPa 0,0 l/m 0 min 0 min 0 W/m 3,2 km/h (1 Bft) 97,83 %
18.11.2023 02:27 4,1 C 3,3 C 1,7 C 98 % 1025,1 hPa 0,0 l/m 0 min 0 min 0 W/m 3,2 km/h (1 Bft) 98,00 %
18.11.2023 02:28 4,1 C 3,3 C 1,7 C 98 % 1025,1 hPa 0,0 l/m 0 min 0 min 0 W/m 3,2 km/h (1 Bft) 100,00 %
18.11.2023 02:30 4,1 C 3,3 C 1,7 C 98 % 1025,1 hPa 0,0 l/m 0 min 0 min 0 W/m 6,4 km/h (2 Bft) 97,87 %
18.11.2023 02:35 4,1 C 3,3 C 1,7 C 98 % 1025,3 hPa 0,0 l/m 0 min 0 min 0 W/m 6,4 km/h (2 Bft) 100,00 %
18.11.2023 02:36 4,1 C 3,3 C 1,7 C 98 % 1025,3 hPa 0,0 l/m 0 min 0 min 0 W/m 0,0 km/h (0 Bft) 100,00 %
18.11.2023 02:38 4,1 C 3,3 C 1,7 C 98 % 1025,3 hPa 0,0 l/m 0 min 0 min 0 W/m 0,0 km/h (0 Bft) 100,00 %
18.11.2023 02:40 4,1 C 3,3 C 1,7 C 98 % 1025,2 hPa 0,0 l/m 0 min 0 min 0 W/m 0,0 km/h (0 Bft) 100,00 %
18.11.2023 02:42 4,0 C 3,3 C 1,7 C 98 % 1025,3 hPa 0,0 l/m 0 min 0 min 0 W/m 6,4 km/h (2 Bft) 100,00 %
18.11.2023 02:44 4,0 C 3,3 C 1,7 C 98 % 1025,2 hPa 0,0 l/m 0 min 0 min 0 W/m 6,4 km/h (2 Bft) 97,83 %
18.11.2023 02:46 4,0 C 3,3 C 1,7 C 98 % 1025,1 hPa 0,0 l/m 0 min 0 min 0 W/m 12,9 km/h (3 Bft) 97,87 %
18.11.2023 02:48 4,0 C 3,3 C 1,7 C 98 % 1025,1 hPa 0,0 l/m 0 min 0 min 0 W/m 6,4 km/h (2 Bft) 97,87 %
18.11.2023 02:50 3,9 C 3,3 C 1,7 C 98 % 1025,1 hPa 0,0 l/m 0 min 0 min 0 W/m 6,4 km/h (2 Bft) 95,74 %
18.11.2023 02:52 3,9 C 3,3 C 1,7 C 98 % 1025,1 hPa 0,0 l/m 0 min 0 min 0 W/m 16,1 km/h (3 Bft) 95,74 %
18.11.2023 02:54 3,9 C 3,3 C 1,7 C 98 % 1025,2 hPa 0,0 l/m 0 min 0 min 0 W/m 16,1 km/h (3 Bft) 93,62 %
18.11.2023 02:56 3,9 C 3,3 C 1,7 C 98 % 1025,2 hPa 0,0 l/m 0 min 0 min 0 W/m 16,1 km/h (3 Bft) 91,30 %
18.11.2023 02:58 3,8 C 3,3 C 1,7 C 98 % 1025,3 hPa 0,0 l/m 0 min 0 min 0 W/m 16,1 km/h (3 Bft) 95,74 %
18.11.2023 03:00 3,8 C 3,3 C 1,7 C 98 % 1025,3 hPa 0,0 l/m 0 min 0 min 0 W/m 16,1 km/h (3 Bft) 95,74 %
18.11.2023 03:02 3,8 C 3,3 C 1,7 C 98 % 1025,2 hPa 0,0 l/m 0 min 0 min 0 W/m 19,3 km/h (3 Bft) 95,74 %
18.11.2023 03:04 3,8 C 3,3 C 1,7 C 98 % 1025,2 hPa 0,0 l/m 0 min 0 min 0 W/m 12,9 km/h (3 Bft) 94,23 %
18.11.2023 03:10 3,8 C 3,3 C 1,7 C 98 % 1025,2 hPa 0,0 l/m 0 min 0 min 0 W/m 16,1 km/h (3 Bft) 94,33 %
18.11.2023 03:12 3,8 C 3,3 C 1,7 C 98 % 1025,2 hPa 0,0 l/m 0 min 0 min 0 W/m 6,4 km/h (2 Bft) 95,74 %
18.11.2023 03:14 3,8 C 3,3 C 1,7 C 98 % 1025,1 hPa 0,0 l/m 0 min 0 min 0 W/m 6,4 km/h (2 Bft) 94,34 %
18.11.2023 03:16 3,8 C 3,3 C 1,7 C 98 % 1025,1 hPa 0,0 l/m 0 min 0 min 0 W/m 12,9 km/h (3 Bft) 95,74 %
18.11.2023 03:18 3,8 C 3,3 C 1,7 C 98 % 1025,1 hPa 0,0 l/m 0 min 0 min 0 W/m 16,1 km/h (3 Bft) 95,74 %
18.11.2023 03:20 3,8 C 3,3 C 1,7 C 98 % 1025,1 hPa 0,0 l/m 0 min 0 min 0 W/m 19,3 km/h (3 Bft) 93,62 %
18.11.2023 03:22 3,8 C 3,3 C 1,7 C 98 % 1025,1 hPa 0,0 l/m 0 min 0 min 0 W/m 3,2 km/h (1 Bft) 95,74 %
18.11.2023 03:24 3,7 C 3,3 C 1,7 C 98 % 1025,1 hPa 0,0 l/m 0 min 0 min 0 W/m 16,1 km/h (3 Bft) 93,62 %
18.11.2023 03:26 3,7 C 3,3 C 1,7 C 98 % 1025,0 hPa 0,0 l/m 0 min 0 min 0 W/m 12,9 km/h (3 Bft) 95,65 %
18.11.2023 03:28 3,7 C 3,3 C 1,7 C 98 % 1025,1 hPa 0,0 l/m 0 min 0 min 0 W/m 6,4 km/h (2 Bft) 95,74 %
18.11.2023 03:30 3,7 C 3,3 C 1,7 C 98 % 1025,1 hPa 0,0 l/m 0 min 0 min 0 W/m 12,9 km/h (3 Bft) 95,74 %
18.11.2023 03:32 3,7 C 3,3 C 1,7 C 98 % 1025,0 hPa 0,0 l/m 0 min 0 min 0 W/m 16,1 km/h (3 Bft) 95,74 %
18.11.2023 03:34 3,8 C 3,3 C 1,7 C 98 % 1025,0 hPa 0,0 l/m 0 min 0 min 0 W/m 16,1 km/h (3 Bft) 95,74 %
18.11.2023 03:36 3,8 C 3,3 C 1,7 C 98 % 1024,9 hPa 0,0 l/m 0 min 0 min 0 W/m 12,9 km/h (3 Bft) 95,74 %
18.11.2023 03:38 3,8 C 3,3 C 1,7 C 98 % 1024,9 hPa 0,0 l/m 0 min 0 min 0 W/m 16,1 km/h (3 Bft) 97,14 %
18.11.2023 03:40 3,8 C 3,3 C 1,7 C 98 % 1024,8 hPa 0,0 l/m 0 min 0 min 0 W/m 6,4 km/h (2 Bft) 95,92 %
18.11.2023 03:42 3,8 C 3,3 C 1,7 C 98 % 1024,9 hPa 0,0 l/m 0 min 0 min 0 W/m 12,9 km/h (3 Bft) 97,83 %
18.11.2023 03:44 3,8 C 3,3 C 1,7 C 98 % 1024,9 hPa 0,0 l/m 0 min 0 min 0 W/m 3,2 km/h (1 Bft) 95,74 %
18.11.2023 03:46 3,8 C 3,3 C 1,7 C 98 % 1024,9 hPa 0,0 l/m 0 min 0 min 0 W/m 3,2 km/h (1 Bft) 97,83 %
18.11.2023 03:48 3,8 C 3,3 C 1,7 C 98 % 1024,9 hPa 0,0 l/m 0 min 0 min 0 W/m 12,9 km/h (3 Bft) 97,87 %
18.11.2023 03:50 3,8 C 3,3 C 1,7 C 98 % 1025,0 hPa 0,0 l/m 0 min 0 min 0 W/m 12,9 km/h (3 Bft) 95,74 %
18.11.2023 03:52 3,8 C 3,3 C 1,7 C 98 % 1025,0 hPa 0,0 l/m 0 min 0 min 0 W/m 12,9 km/h (3 Bft) 95,74 %
18.11.2023 03:54 3,8 C 3,3 C 1,7 C 98 % 1025,1 hPa 0,0 l/m 0 min 0 min 0 W/m 12,9 km/h (3 Bft) 97,96 %
18.11.2023 03:56 3,8 C 3,3 C 1,7 C 98 % 1025,1 hPa 0,0 l/m 0 min 0 min 0 W/m 6,4 km/h (2 Bft) 95,83 %
18.11.2023 03:58 3,8 C 3,3 C 1,7 C 98 % 1025,2 hPa 0,0 l/m 0 min 0 min 0 W/m 6,4 km/h (2 Bft) 97,87 %
18.11.2023 04:00 3,8 C 3,3 C 1,7 C 98 % 1025,2 hPa 0,0 l/m 0 min 0 min 0 W/m 19,3 km/h (3 Bft) 97,83 %
18.11.2023 04:02 3,8 C 3,3 C 1,7 C 98 % 1025,2 hPa 0,0 l/m 0 min 0 min 0 W/m 12,9 km/h (3 Bft) 97,87 %
18.11.2023 04:04 3,8 C 3,3 C 1,7 C 98 % 1025,2 hPa 0,0 l/m 0 min 0 min 0 W/m 12,9 km/h (3 Bft) 97,73 %
18.11.2023 04:08 3,8 C 3,3 C 1,7 C 98 % 1025,0 hPa 0,0 l/m 0 min 0 min 0 W/m 12,9 km/h (3 Bft) 98,06 %
18.11.2023 04:10 3,9 C 3,3 C 1,7 C 98 % 1024,9 hPa 0,0 l/m 0 min 0 min 0 W/m 16,1 km/h (3 Bft) 97,22 %
18.11.2023 04:12 3,9 C 3,3 C 1,7 C 98 % 1024,9 hPa 0,0 l/m 0 min 0 min 0 W/m 12,9 km/h (3 Bft) 97,92 %
18.11.2023 04:14 3,9 C 3,3 C 1,7 C 98 % 1024,9 hPa 0,0 l/m 0 min 0 min 0 W/m 6,4 km/h (2 Bft) 100,00 %
18.11.2023 04:16 3,9 C 3,3 C 1,7 C 98 % 1024,8 hPa 0,0 l/m 0 min 0 min 0 W/m 9,7 km/h (2 Bft) 100,00 %
18.11.2023 04:18 3,9 C 3,3 C 1,7 C 98 % 1024,9 hPa 0,0 l/m 0 min 0 min 0 W/m 16,1 km/h (3 Bft) 100,00 %
18.11.2023 04:20 3,9 C 3,3 C 1,7 C 98 % 1024,8 hPa 0,0 l/m 0 min 0 min 0 W/m 12,9 km/h (3 Bft) 100,00 %
18.11.2023 04:26 3,9 C 3,3 C 1,7 C 98 % 1024,7 hPa 0,0 l/m 0 min 0 min 0 W/m 16,1 km/h (3 Bft) 100,00 %
18.11.2023 04:27 3,9 C 3,3 C 1,7 C 98 % 1024,6 hPa 0,0 l/m 0 min 0 min 0 W/m 6,4 km/h (2 Bft) 100,00 %
18.11.2023 04:32 3,9 C 3,3 C 1,7 C 98 % 1024,6 hPa 0,0 l/m 0 min 0 min 0 W/m 12,9 km/h (3 Bft) 97,92 %
18.11.2023 04:34 3,9 C 3,3 C 1,7 C 98 % 1024,6 hPa 0,0 l/m 0 min 0 min 0 W/m 12,9 km/h (3 Bft) 100,00 %
18.11.2023 04:36 3,9 C 3,3 C 1,7 C 98 % 1024,6 hPa 0,0 l/m 0 min 0 min 0 W/m 12,9 km/h (3 Bft) 100,00 %
18.11.2023 04:38 3,9 C 3,3 C 1,7 C 98 % 1024,7 hPa 0,0 l/m 0 min 0 min 0 W/m 3,2 km/h (1 Bft) 100,00 %
18.11.2023 04:40 3,9 C 3,3 C 1,7 C 98 % 1024,7 hPa 0,0 l/m 0 min 0 min 0 W/m 16,1 km/h (3 Bft) 100,00 %
18.11.2023 04:42 3,9 C 3,3 C 1,7 C 98 % 1024,8 hPa 0,0 l/m 0 min 0 min 0 W/m 12,9 km/h (3 Bft) 100,00 %
18.11.2023 04:44 3,9 C 3,3 C 1,7 C 98 % 1024,7 hPa 0,0 l/m 0 min 0 min 0 W/m 6,4 km/h (2 Bft) 100,00 %
18.11.2023 04:46 3,9 C 3,3 C 1,7 C 98 % 1024,8 hPa 0,0 l/m 0 min 0 min 0 W/m 16,1 km/h (3 Bft) 100,00 %
18.11.2023 04:48 3,9 C 3,3 C 1,7 C 98 % 1024,7 hPa 0,0 l/m 0 min 0 min 0 W/m 12,9 km/h (3 Bft) 97,87 %
18.11.2023 04:50 3,9 C 3,3 C 1,7 C 98 % 1024,8 hPa 0,0 l/m 0 min 0 min 0 W/m 12,9 km/h (3 Bft) 100,00 %
18.11.2023 04:52 3,9 C 3,3 C 1,7 C 98 % 1024,8 hPa 0,0 l/m 0 min 0 min 0 W/m 12,9 km/h (3 Bft) 100,00 %
18.11.2023 04:54 3,9 C 3,3 C 1,7 C 98 % 1024,9 hPa 0,0 l/m 0 min 0 min 0 W/m 6,4 km/h (2 Bft) 100,00 %
18.11.2023 04:56 3,9 C 3,3 C 1,7 C 98 % 1024,9 hPa 0,0 l/m 0 min 0 min 0 W/m 12,9 km/h (3 Bft) 100,00 %
18.11.2023 04:58 3,9 C 3,3 C 1,7 C 98 % 1024,9 hPa 0,0 l/m 0 min 0 min 0 W/m 12,9 km/h (3 Bft) 100,00 %
18.11.2023 05:00 3,9 C 3,3 C 1,7 C 98 % 1024,8 hPa 0,0 l/m 0 min 0 min 0 W/m 6,4 km/h (2 Bft) 97,87 %
18.11.2023 05:02 3,9 C 3,3 C 1,7 C 98 % 1024,8 hPa 0,0 l/m 0 min 0 min 0 W/m 6,4 km/h (2 Bft) 97,87 %
18.11.2023 05:04 3,9 C 3,3 C 1,7 C 98 % 1024,8 hPa 0,0 l/m 0 min 0 min 0 W/m 12,9 km/h (3 Bft) 100,00 %
18.11.2023 05:08 4,0 C 3,3 C 1,7 C 98 % 1024,7 hPa 0,0 l/m 0 min 0 min 0 W/m 16,1 km/h (3 Bft) 100,00 %
18.11.2023 05:10 3,9 C 3,3 C 1,7 C 98 % 1024,7 hPa 0,0 l/m 0 min 0 min 0 W/m 16,1 km/h (3 Bft) 100,00 %
18.11.2023 05:12 3,9 C 3,3 C 1,7 C 98 % 1024,7 hPa 0,0 l/m 0 min 0 min 0 W/m 12,9 km/h (3 Bft) 97,83 %
18.11.2023 05:14 3,9 C 3,3 C 1,7 C 98 % 1024,7 hPa 0,0 l/m 0 min 0 min 0 W/m 12,9 km/h (3 Bft) 100,00 %
18.11.2023 05:16 4,0 C 3,3 C 1,7 C 98 % 1024,6 hPa 0,0 l/m 0 min 0 min 0 W/m 12,9 km/h (3 Bft) 100,00 %
18.11.2023 05:18 4,0 C 3,3 C 1,7 C 98 % 1024,6 hPa 0,0 l/m 0 min 0 min 0 W/m 16,1 km/h (3 Bft) 100,00 %
18.11.2023 05:20 4,0 C 3,3 C 1,7 C 98 % 1024,5 hPa 0,0 l/m 0 min 0 min 0 W/m 12,9 km/h (3 Bft) 100,00 %
18.11.2023 05:22 4,0 C 3,3 C 1,7 C 98 % 1024,5 hPa 0,0 l/m 0 min 0 min 0 W/m 19,3 km/h (3 Bft) 97,87 %
18.11.2023 05:24 4,0 C 3,3 C 1,7 C 98 % 1024,6 hPa 0,0 l/m 0 min 0 min 0 W/m 12,9 km/h (3 Bft) 97,87 %
18.11.2023 05:26 4,0 C 3,3 C 1,7 C 98 % 1024,5 hPa 0,0 l/m 0 min 0 min 0 W/m 12,9 km/h (3 Bft) 97,87 %
18.11.2023 05:28 4,0 C 3,3 C 1,7 C 98 % 1024,4 hPa 0,0 l/m 0 min 0 min 0 W/m 6,4 km/h (2 Bft) 97,83 %
18.11.2023 05:30 4,0 C 3,3 C 1,7 C 98 % 1024,3 hPa 0,0 l/m 0 min 0 min 0 W/m 16,1 km/h (3 Bft) 95,74 %
18.11.2023 05:32 4,0 C 3,3 C 1,7 C 99 % 1024,3 hPa 0,0 l/m 0 min 0 min 0 W/m 19,3 km/h (3 Bft) 97,87 %
18.11.2023 05:34 4,0 C 3,3 C 1,7 C 99 % 1024,3 hPa 0,0 l/m 0 min 0 min 0 W/m 12,9 km/h (3 Bft) 91,49 %
18.11.2023 05:36 4,0 C 3,3 C 1,7 C 99 % 1024,2 hPa 0,0 l/m 0 min 0 min 0 W/m 16,1 km/h (3 Bft) 95,74 %
18.11.2023 05:38 4,1 C 3,3 C 1,7 C 99 % 1024,2 hPa 0,0 l/m 0 min 0 min 0 W/m 12,9 km/h (3 Bft) 95,74 %
18.11.2023 05:40 4,0 C 3,3 C 1,7 C 99 % 1024,1 hPa 0,0 l/m 0 min 0 min 0 W/m 12,9 km/h (3 Bft) 95,65 %
18.11.2023 05:42 4,0 C 3,3 C 1,7 C 99 % 1024,2 hPa 0,0 l/m 0 min 0 min 0 W/m 16,1 km/h (3 Bft) 81,25 %
18.11.2023 05:44 4,1 C 3,3 C 1,7 C 99 % 1024,2 hPa 0,0 l/m 0 min 0 min 0 W/m 12,9 km/h (3 Bft) 69,57 %
18.11.2023 05:46 4,0 C 3,3 C 1,7 C 99 % 1024,1 hPa 0,0 l/m 0 min 0 min 0 W/m 16,1 km/h (3 Bft) 93,75 %
18.11.2023 05:48 4,0 C 3,3 C 1,7 C 99 % 1024,1 hPa 0,0 l/m 0 min 0 min 0 W/m 16,1 km/h (3 Bft) 93,62 %
18.11.2023 05:50 4,0 C 3,3 C 1,7 C 98 % 1024,0 hPa 0,0 l/m 0 min 0 min 0 W/m 16,1 km/h (3 Bft) 95,74 %
18.11.2023 05:52 4,0 C 3,3 C 1,7 C 98 % 1024,0 hPa 0,0 l/m 0 min 0 min 0 W/m 12,9 km/h (3 Bft) 93,62 %
18.11.2023 05:54 4,0 C 3,3 C 1,7 C 98 % 1024,0 hPa 0,0 l/m 0 min 0 min 0 W/m 16,1 km/h (3 Bft) 95,65 %
18.11.2023 05:56 4,0 C 3,3 C 1,7 C 98 % 1024,0 hPa 0,0 l/m 0 min 0 min 0 W/m 16,1 km/h (3 Bft) 94,55 %
18.11.2023 05:58 4,0 C 3,3 C 1,7 C 98 % 1024,0 hPa 0,0 l/m 0 min 0 min 0 W/m 16,1 km/h (3 Bft) 91,67 %
18.11.2023 06:00 3,9 C 3,3 C 1,7 C 98 % 1024,0 hPa 0,0 l/m 0 min 0 min 0 W/m 12,9 km/h (3 Bft) 93,62 %
18.11.2023 06:02 3,9 C 3,3 C 1,7 C 98 % 1023,9 hPa 0,0 l/m 0 min 0 min 0 W/m 12,9 km/h (3 Bft) 92,86 %
18.11.2023 06:04 3,9 C 3,3 C 1,7 C 98 % 1023,9 hPa 0,0 l/m 0 min 0 min 0 W/m 16,1 km/h (3 Bft) 94,23 %
18.11.2023 06:10 3,9 C 3,3 C 1,7 C 98 % 1023,7 hPa 0,0 l/m 0 min 0 min 0 W/m 16,1 km/h (3 Bft) 96,48 %
18.11.2023 06:12 3,9 C 3,3 C 1,7 C 98 % 1023,8 hPa 0,0 l/m 0 min 0 min 0 W/m 12,9 km/h (3 Bft) 95,83 %
18.11.2023 06:16 3,9 C 3,3 C 1,7 C 98 % 1023,7 hPa 0,0 l/m 0 min 0 min 0 W/m 16,1 km/h (3 Bft) 96,81 %
18.11.2023 06:18 3,9 C 3,3 C 1,7 C 98 % 1023,6 hPa 0,0 l/m 0 min 0 min 0 W/m 12,9 km/h (3 Bft) 97,87 %
18.11.2023 06:20 3,9 C 3,3 C 1,7 C 98 % 1023,6 hPa 0,0 l/m 0 min 0 min 0 W/m 6,4 km/h (2 Bft) 95,74 %
18.11.2023 06:22 3,9 C 3,3 C 1,7 C 98 % 1023,6 hPa 0,0 l/m 0 min 0 min 0 W/m 16,1 km/h (3 Bft) 97,87 %
18.11.2023 06:24 3,9 C 3,3 C 1,7 C 98 % 1023,5 hPa 0,0 l/m 0 min 0 min 0 W/m 6,4 km/h (2 Bft) 97,83 %
18.11.2023 06:26 3,9 C 3,3 C 1,7 C 98 % 1023,5 hPa 0,0 l/m 0 min 0 min 0 W/m 6,4 km/h (2 Bft) 97,87 %
18.11.2023 06:28 3,9 C 3,3 C 1,7 C 98 % 1023,6 hPa 0,0 l/m 0 min 0 min 0 W/m 6,4 km/h (2 Bft) 97,87 %
18.11.2023 06:30 3,9 C 3,3 C 1,7 C 98 % 1023,6 hPa 0,0 l/m 0 min 0 min 0 W/m 6,4 km/h (2 Bft) 97,87 %
18.11.2023 06:32 3,9 C 3,3 C 1,7 C 98 % 1023,6 hPa 0,0 l/m 0 min 0 min 0 W/m 6,4 km/h (2 Bft) 97,87 %
18.11.2023 06:34 3,9 C 3,3 C 1,7 C 98 % 1023,5 hPa 0,0 l/m 0 min 0 min 0 W/m 12,9 km/h (3 Bft) 97,87 %
18.11.2023 06:36 3,9 C 3,3 C 1,7 C 99 % 1023,5 hPa 0,0 l/m 0 min 0 min 0 W/m 6,4 km/h (2 Bft) 97,87 %
18.11.2023 06:38 3,9 C 3,3 C 1,7 C 99 % 1023,5 hPa 0,0 l/m 0 min 0 min 0 W/m 6,4 km/h (2 Bft) 95,74 %
18.11.2023 06:40 3,9 C 3,3 C 1,7 C 99 % 1023,6 hPa 0,0 l/m 0 min 0 min 0 W/m 6,4 km/h (2 Bft) 97,83 %
18.11.2023 06:42 3,9 C 3,3 C 1,7 C 99 % 1023,6 hPa 0,0 l/m 0 min 0 min 0 W/m 16,1 km/h (3 Bft) 95,74 %
18.11.2023 06:44 3,9 C 3,3 C 1,7 C 99 % 1023,6 hPa 0,0 l/m 0 min 0 min 0 W/m 6,4 km/h (2 Bft) 97,87 %
18.11.2023 06:46 3,9 C 3,3 C 1,7 C 99 % 1023,5 hPa 0,0 l/m 0 min 0 min 0 W/m 6,4 km/h (2 Bft) 97,87 %
18.11.2023 06:48 3,9 C 3,3 C 1,7 C 99 % 1023,5 hPa 0,0 l/m 0 min 0 min 0 W/m 12,9 km/h (3 Bft) 97,87 %
18.11.2023 06:50 3,9 C 3,3 C 1,7 C 99 % 1023,5 hPa 0,0 l/m 0 min 0 min 0 W/m 12,9 km/h (3 Bft) 100,00 %
18.11.2023 06:52 3,9 C 3,3 C 1,7 C 99 % 1023,5 hPa 0,0 l/m 0 min 0 min 0 W/m 12,9 km/h (3 Bft) 97,87 %
18.11.2023 06:54 4,0 C 3,3 C 1,7 C 99 % 1023,5 hPa 0,0 l/m 0 min 0 min 0 W/m 6,4 km/h (2 Bft) 97,83 %
18.11.2023 06:56 4,0 C 3,3 C 1,7 C 99 % 1023,4 hPa 0,0 l/m 0 min 0 min 0 W/m 3,2 km/h (1 Bft) 100,00 %
18.11.2023 06:58 3,9 C 3,3 C 1,7 C 99 % 1023,4 hPa 0,0 l/m 0 min 0 min 0 W/m 3,2 km/h (1 Bft) 97,87 %
18.11.2023 07:00 4,0 C 3,3 C 1,7 C 99 % 1023,4 hPa 0,0 l/m 0 min 0 min 0 W/m 6,4 km/h (2 Bft) 100,00 %
18.11.2023 07:02 4,0 C 3,3 C 1,7 C 99 % 1023,3 hPa 0,0 l/m 0 min 0 min 0 W/m 6,4 km/h (2 Bft) 100,00 %
18.11.2023 07:04 4,0 C 3,3 C 1,7 C 99 % 1023,3 hPa 0,0 l/m 0 min 0 min 0 W/m 6,4 km/h (2 Bft) 95,74 %
18.11.2023 07:08 4,0 C 3,3 C 1,7 C 99 % 1023,4 hPa 0,0 l/m 0 min 0 min 0 W/m 6,4 km/h (2 Bft) 100,00 %
18.11.2023 07:09 4,0 C 3,3 C 1,7 C 99 % 1023,4 hPa 0,0 l/m 0 min 0 min 0 W/m 3,2 km/h (1 Bft) 95,83 %
18.11.2023 07:12 4,0 C 3,3 C 1,7 C 99 % 1023,2 hPa 0,0 l/m 0 min 0 min 0 W/m 12,9 km/h (3 Bft) 98,57 %
18.11.2023 07:14 4,0 C 3,3 C 1,7 C 99 % 1023,2 hPa 0,0 l/m 0 min 0 min 0 W/m 6,4 km/h (2 Bft) 100,00 %
18.11.2023 07:16 4,0 C 3,3 C 1,7 C 99 % 1023,2 hPa 0,0 l/m 0 min 0 min 0 W/m 6,4 km/h (2 Bft) 97,87 %
18.11.2023 07:18 4,0 C 3,3 C 1,7 C 99 % 1023,1 hPa 0,0 l/m 0 min 0 min 0 W/m 12,9 km/h (3 Bft) 100,00 %
18.11.2023 07:20 4,1 C 3,3 C 1,7 C 99 % 1023,0 hPa 0,0 l/m 0 min 0 min 0 W/m 12,9 km/h (3 Bft) 100,00 %
18.11.2023 07:22 4,1 C 3,3 C 1,7 C 99 % 1023,0 hPa 0,0 l/m 0 min 0 min 0 W/m 12,9 km/h (3 Bft) 97,87 %
18.11.2023 07:24 4,1 C 3,9 C 1,7 C 99 % 1023,0 hPa 0,0 l/m 0 min 0 min 0 W/m 6,4 km/h (2 Bft) 97,87 %
18.11.2023 07:26 4,1 C 3,9 C 1,7 C 99 % 1023,1 hPa 0,0 l/m 0 min 0 min 0 W/m 6,4 km/h (2 Bft) 97,87 %
18.11.2023 07:28 4,1 C 3,9 C 1,7 C 99 % 1023,1 hPa 0,0 l/m 0 min 0 min 0 W/m 12,9 km/h (3 Bft) 97,87 %
18.11.2023 07:30 4,1 C 3,9 C 1,7 C 99 % 1023,1 hPa 0,0 l/m 0 min 0 min 0 W/m 16,1 km/h (3 Bft) 97,87 %
18.11.2023 07:32 4,1 C 3,9 C 1,7 C 99 % 1023,2 hPa 0,0 l/m 0 min 0 min 0 W/m 12,9 km/h (3 Bft) 97,83 %
18.11.2023 07:34 4,1 C 3,9 C 1,7 C 99 % 1023,2 hPa 0,0 l/m 0 min 0 min 0 W/m 19,3 km/h (3 Bft) 97,87 %
18.11.2023 07:36 4,1 C 3,9 C 1,7 C 99 % 1023,1 hPa 0,0 l/m 0 min 0 min 0 W/m 12,9 km/h (3 Bft) 93,62 %
18.11.2023 07:38 4,1 C 3,9 C 1,7 C 99 % 1023,2 hPa 0,0 l/m 0 min 0 min 0 W/m 6,4 km/h (2 Bft) 97,87 %
18.11.2023 07:40 4,1 C 3,9 C 1,7 C 99 % 1023,1 hPa 0,0 l/m 0 min 0 min 0 W/m 3,2 km/h (1 Bft) 95,74 %
18.11.2023 07:42 4,1 C 3,9 C 1,7 C 99 % 1023,0 hPa 0,0 l/m 0 min 0 min 0 W/m 16,1 km/h (3 Bft) 97,87 %
18.11.2023 07:44 4,1 C 3,9 C 1,7 C 99 % 1023,1 hPa 0,0 l/m 0 min 0 min 0 W/m 6,4 km/h (2 Bft) 95,74 %
18.11.2023 07:46 4,1 C 3,9 C 2,2 C 99 % 1023,2 hPa 0,0 l/m 0 min 0 min 0 W/m 12,9 km/h (3 Bft) 95,65 %
18.11.2023 07:48 4,1 C 3,9 C 2,2 C 99 % 1023,2 hPa 0,0 l/m 0 min 0 min 0 W/m 16,1 km/h (3 Bft) 93,62 %
18.11.2023 07:50 4,1 C 3,9 C 2,2 C 99 % 1023,2 hPa 0,0 l/m 0 min 0 min 0 W/m 6,4 km/h (2 Bft) 95,74 %
18.11.2023 07:52 4,1 C 3,9 C 2,2 C 99 % 1023,2 hPa 0,0 l/m 0 min 0 min 0 W/m 6,4 km/h (2 Bft) 95,74 %
18.11.2023 07:54 4,2 C 3,9 C 2,2 C 99 % 1023,3 hPa 0,0 l/m 0 min 0 min 0 W/m 6,4 km/h (2 Bft) 95,83 %
18.11.2023 07:56 4,2 C 3,9 C 2,2 C 99 % 1023,3 hPa 0,0 l/m 0 min 0 min 0 W/m 12,9 km/h (3 Bft) 97,87 %
18.11.2023 07:58 4,2 C 3,9 C 2,2 C 99 % 1023,3 hPa 0,0 l/m 0 min 0 min 0 W/m 12,9 km/h (3 Bft) 97,87 %
18.11.2023 08:00 4,2 C 3,9 C 2,2 C 99 % 1023,2 hPa 0,0 l/m 0 min 0 min 0 W/m 6,4 km/h (2 Bft) 97,83 %
18.11.2023 08:02 4,2 C 3,9 C 2,2 C 99 % 1023,2 hPa 0,0 l/m 0 min 0 min 0 W/m 12,9 km/h (3 Bft) 97,87 %
18.11.2023 08:04 4,2 C 3,9 C 2,2 C 99 % 1023,3 hPa 0,0 l/m 0 min 0 min 0 W/m 12,9 km/h (3 Bft) 98,00 %
18.11.2023 08:06 4,2 C 3,9 C 2,2 C 99 % 1023,4 hPa 0,0 l/m 0 min 0 min 0 W/m 12,9 km/h (3 Bft) 97,92 %
18.11.2023 08:08 4,3 C 3,9 C 2,2 C 99 % 1023,5 hPa 0,0 l/m 0 min 0 min 0 W/m 12,9 km/h (3 Bft) 95,74 %
18.11.2023 08:10 4,3 C 3,9 C 2,2 C 99 % 1023,5 hPa 0,0 l/m 0 min 0 min 1 W/m 12,9 km/h (3 Bft) 97,87 %
18.11.2023 08:12 4,3 C 3,9 C 2,2 C 99 % 1023,4 hPa 0,0 l/m 0 min 0 min 5 W/m 6,4 km/h (2 Bft) 97,83 %
18.11.2023 08:14 4,3 C 3,9 C 2,2 C 99 % 1023,4 hPa 0,0 l/m 0 min 0 min 5 W/m 19,3 km/h (3 Bft) 95,74 %
18.11.2023 08:16 4,3 C 3,9 C 2,2 C 99 % 1023,4 hPa 0,0 l/m 0 min 0 min 5 W/m 16,1 km/h (3 Bft) 97,87 %
18.11.2023 08:18 4,3 C 3,9 C 2,2 C 99 % 1023,3 hPa 0,0 l/m 0 min 0 min 5 W/m 16,1 km/h (3 Bft) 97,87 %
18.11.2023 08:20 4,3 C 3,9 C 2,2 C 99 % 1023,3 hPa 0,0 l/m 0 min 0 min 7 W/m 12,9 km/h (3 Bft) 95,74 %
18.11.2023 08:22 4,3 C 3,9 C 2,2 C 99 % 1023,2 hPa 0,0 l/m 0 min 0 min 7 W/m 12,9 km/h (3 Bft) 95,74 %
18.11.2023 08:24 4,3 C 3,9 C 2,2 C 99 % 1023,2 hPa 0,0 l/m 0 min 0 min 8 W/m 16,1 km/h (3 Bft) 97,87 %
18.11.2023 08:26 4,4 C 3,9 C 2,2 C 99 % 1023,1 hPa 0,0 l/m 0 min 0 min 9 W/m 12,9 km/h (3 Bft) 97,87 %
18.11.2023 08:28 4,4 C 3,9 C 2,2 C 99 % 1023,1 hPa 0,0 l/m 0 min 0 min 9 W/m 12,9 km/h (3 Bft) 97,83 %
18.11.2023 08:30 4,4 C 3,9 C 2,2 C 99 % 1023,2 hPa 0,0 l/m 0 min 0 min 11 W/m 6,4 km/h (2 Bft) 97,87 %
18.11.2023 08:32 4,4 C 3,9 C 2,2 C 99 % 1023,1 hPa 0,0 l/m 0 min 0 min 11 W/m 16,1 km/h (3 Bft) 97,87 %
18.11.2023 08:34 4,4 C 3,9 C 2,2 C 99 % 1023,1 hPa 0,0 l/m 0 min 0 min 12 W/m 12,9 km/h (3 Bft) 100,00 %
18.11.2023 08:36 4,4 C 3,9 C 2,2 C 99 % 1023,0 hPa 0,0 l/m 0 min 0 min 13 W/m 12,9 km/h (3 Bft) 97,87 %
18.11.2023 08:38 4,4 C 3,9 C 2,2 C 99 % 1023,0 hPa 0,0 l/m 0 min 0 min 14 W/m 12,9 km/h (3 Bft) 100,00 %
18.11.2023 08:40 4,4 C 3,9 C 2,2 C 99 % 1023,0 hPa 0,0 l/m 0 min 0 min 16 W/m 9,7 km/h (2 Bft) 100,00 %
18.11.2023 08:42 4,5 C 4,4 C 2,2 C 99 % 1023,0 hPa 0,0 l/m 0 min 0 min 18 W/m 6,4 km/h (2 Bft) 100,00 %
18.11.2023 08:44 4,5 C 4,4 C 2,2 C 99 % 1023,0 hPa 0,0 l/m 0 min 0 min 18 W/m 12,9 km/h (3 Bft) 100,00 %
18.11.2023 08:46 4,5 C 4,4 C 2,2 C 99 % 1023,1 hPa 0,0 l/m 0 min 0 min 18 W/m 6,4 km/h (2 Bft) 100,00 %
18.11.2023 08:48 4,6 C 4,4 C 2,2 C 99 % 1023,0 hPa 0,0 l/m 0 min 0 min 19 W/m 6,4 km/h (2 Bft) 100,00 %
18.11.2023 08:50 4,6 C 4,4 C 2,2 C 99 % 1023,1 hPa 0,0 l/m 0 min 0 min 20 W/m 12,9 km/h (3 Bft) 100,00 %
18.11.2023 08:52 4,6 C 4,4 C 2,2 C 99 % 1023,0 hPa 0,0 l/m 0 min 0 min 21 W/m 6,4 km/h (2 Bft) 100,00 %
18.11.2023 08:54 4,6 C 4,4 C 2,2 C 99 % 1022,9 hPa 0,0 l/m 0 min 0 min 21 W/m 12,9 km/h (3 Bft) 100,00 %
18.11.2023 08:56 4,6 C 4,4 C 2,2 C 99 % 1023,0 hPa 0,0 l/m 0 min 0 min 21 W/m 12,9 km/h (3 Bft) 97,83 %
18.11.2023 08:58 4,7 C 4,4 C 2,8 C 99 % 1023,0 hPa 0,0 l/m 0 min 0 min 22 W/m 12,9 km/h (3 Bft) 100,00 %
18.11.2023 09:00 4,7 C 4,4 C 2,8 C 99 % 1023,0 hPa 0,0 l/m 0 min 0 min 23 W/m 12,9 km/h (3 Bft) 100,00 %
18.11.2023 09:02 4,7 C 4,4 C 2,8 C 99 % 1023,0 hPa 0,0 l/m 0 min 0 min 24 W/m 6,4 km/h (2 Bft) 97,87 %
18.11.2023 09:04 4,7 C 4,4 C 2,8 C 99 % 1022,9 hPa 0,0 l/m 0 min 0 min 25 W/m 12,9 km/h (3 Bft) 97,96 %
18.11.2023 09:08 4,7 C 4,4 C 2,8 C 99 % 1023,0 hPa 0,0 l/m 0 min 0 min 25 W/m 16,1 km/h (3 Bft) 97,73 %
18.11.2023 09:09 4,8 C 4,4 C 2,8 C 99 % 1023,0 hPa 0,0 l/m 0 min 0 min 25 W/m 6,4 km/h (2 Bft) 95,65 %
18.11.2023 09:10 4,8 C 4,4 C 2,8 C 99 % 1023,0 hPa 0,0 l/m 0 min 0 min 25 W/m 16,1 km/h (3 Bft) 100,00 %
18.11.2023 09:14 4,8 C 4,4 C 2,8 C 99 % 1023,0 hPa 0,0 l/m 0 min 0 min 29 W/m 6,4 km/h (2 Bft) 93,62 %
18.11.2023 09:16 4,8 C 4,4 C 2,8 C 99 % 1022,9 hPa 0,0 l/m 0 min 0 min 30 W/m 6,4 km/h (2 Bft) 95,74 %
18.11.2023 09:18 4,8 C 4,4 C 2,8 C 99 % 1023,0 hPa 0,0 l/m 0 min 0 min 32 W/m 16,1 km/h (3 Bft) 93,62 %
18.11.2023 09:20 4,8 C 5,0 C 2,8 C 99 % 1023,0 hPa 0,0 l/m 0 min 0 min 32 W/m 12,9 km/h (3 Bft) 95,65 %
18.11.2023 09:22 4,9 C 5,0 C 2,8 C 99 % 1023,1 hPa 0,0 l/m 0 min 0 min 32 W/m 16,1 km/h (3 Bft) 95,74 %
18.11.2023 09:24 4,9 C 5,0 C 2,8 C 99 % 1023,1 hPa 0,0 l/m 0 min 0 min 34 W/m 12,9 km/h (3 Bft) 95,74 %
18.11.2023 09:26 4,9 C 5,0 C 2,8 C 99 % 1023,0 hPa 0,0 l/m 0 min 0 min 38 W/m 16,1 km/h (3 Bft) 95,83 %
18.11.2023 09:28 4,9 C 5,0 C 2,8 C 99 % 1023,0 hPa 0,0 l/m 0 min 0 min 40 W/m 22,5 km/h (4 Bft) 93,62 %
18.11.2023 09:30 5,0 C 5,0 C 2,8 C 99 % 1023,0 hPa 0,0 l/m 0 min 0 min 40 W/m 9,7 km/h (2 Bft) 91,49 %
18.11.2023 09:32 5,0 C 5,0 C 2,8 C 99 % 1023,1 hPa 0,0 l/m 0 min 0 min 39 W/m 19,3 km/h (3 Bft) 95,74 %
18.11.2023 09:34 5,0 C 5,0 C 2,8 C 99 % 1023,0 hPa 0,0 l/m 0 min 0 min 39 W/m 6,4 km/h (2 Bft) 95,74 %
18.11.2023 09:36 5,1 C 5,0 C 2,8 C 99 % 1023,0 hPa 0,0 l/m 0 min 0 min 41 W/m 19,3 km/h (3 Bft) 95,65 %
18.11.2023 09:38 5,1 C 5,0 C 2,8 C 99 % 1023,0 hPa 0,0 l/m 0 min 0 min 41 W/m 9,7 km/h (2 Bft) 95,74 %
18.11.2023 09:40 5,1 C 5,0 C 2,8 C 99 % 1023,0 hPa 0,0 l/m 0 min 0 min 42 W/m 19,3 km/h (3 Bft) 95,74 %
18.11.2023 09:42 5,1 C 5,0 C 2,8 C 99 % 1023,0 hPa 0,0 l/m 0 min 0 min 42 W/m 12,9 km/h (3 Bft) 95,74 %
18.11.2023 09:44 5,1 C 5,0 C 2,8 C 99 % 1023,0 hPa 0,0 l/m 0 min 0 min 44 W/m 12,9 km/h (3 Bft) 97,87 %
18.11.2023 09:46 5,2 C 5,0 C 2,8 C 99 % 1023,0 hPa 0,0 l/m 0 min 0 min 45 W/m 19,3 km/h (3 Bft) 97,87 %
18.11.2023 09:48 5,2 C 5,0 C 3,3 C 99 % 1023,0 hPa 0,0 l/m 0 min 0 min 46 W/m 16,1 km/h (3 Bft) 95,74 %
18.11.2023 09:50 5,2 C 5,0 C 3,3 C 99 % 1023,0 hPa 0,0 l/m 0 min 0 min 46 W/m 6,4 km/h (2 Bft) 97,83 %
18.11.2023 09:52 5,2 C 5,0 C 3,3 C 99 % 1023,0 hPa 0,0 l/m 0 min 0 min 47 W/m 12,9 km/h (3 Bft) 97,87 %
18.11.2023 09:54 5,2 C 5,0 C 3,3 C 99 % 1023,0 hPa 0,0 l/m 0 min 0 min 46 W/m 16,1 km/h (3 Bft) 97,62 %
18.11.2023 09:56 5,3 C 5,0 C 3,3 C 99 % 1023,0 hPa 0,0 l/m 0 min 0 min 43 W/m 12,9 km/h (3 Bft) 100,00 %
18.11.2023 09:58 5,3 C 5,0 C 3,3 C 99 % 1023,0 hPa 0,0 l/m 0 min 0 min 41 W/m 6,4 km/h (2 Bft) 100,00 %
18.11.2023 10:00 5,3 C 5,0 C 3,3 C 99 % 1023,0 hPa 0,0 l/m 0 min 0 min 39 W/m 6,4 km/h (2 Bft) 97,87 %
18.11.2023 10:02 5,3 C 5,0 C 3,3 C 99 % 1022,9 hPa 0,0 l/m 0 min 0 min 33 W/m 16,1 km/h (3 Bft) 97,87 %
18.11.2023 10:04 5,3 C 5,0 C 3,3 C 99 % 1023,0 hPa 0,0 l/m 0 min 0 min 30 W/m 16,1 km/h (3 Bft) 97,83 %
18.11.2023 10:10 5,4 C 5,0 C 3,3 C 99 % 1022,8 hPa 0,0 l/m 0 min 0 min 27 W/m 12,9 km/h (3 Bft) 99,29 %
18.11.2023 10:12 5,4 C 5,0 C 3,3 C 99 % 1022,8 hPa 0,0 l/m 0 min 0 min 26 W/m 12,9 km/h (3 Bft) 95,74 %
18.11.2023 10:14 5,4 C 5,0 C 3,3 C 99 % 1022,7 hPa 0,0 l/m 0 min 0 min 28 W/m 22,5 km/h (4 Bft) 100,00 %
18.11.2023 10:16 5,4 C 5,0 C 3,3 C 99 % 1022,6 hPa 0,0 l/m 0 min 0 min 33 W/m 6,4 km/h (2 Bft) 97,87 %
18.11.2023 10:18 5,4 C 5,0 C 3,3 C 99 % 1022,6 hPa 0,0 l/m 0 min 0 min 35 W/m 12,9 km/h (3 Bft) 95,74 %
18.11.2023 10:20 5,4 C 5,0 C 3,3 C 99 % 1022,5 hPa 0,0 l/m 0 min 0 min 40 W/m 12,9 km/h (3 Bft) 97,83 %
18.11.2023 10:22 5,4 C 5,6 C 3,3 C 99 % 1022,5 hPa 0,0 l/m 0 min 0 min 45 W/m 12,9 km/h (3 Bft) 97,87 %
18.11.2023 10:24 5,4 C 5,6 C 3,3 C 99 % 1022,5 hPa 0,0 l/m 0 min 0 min 47 W/m 16,1 km/h (3 Bft) 97,87 %
18.11.2023 10:26 5,5 C 5,6 C 3,3 C 99 % 1022,5 hPa 0,0 l/m 0 min 0 min 48 W/m 12,9 km/h (3 Bft) 95,74 %
18.11.2023 10:28 5,5 C 5,6 C 3,3 C 99 % 1022,4 hPa 0,0 l/m 0 min 0 min 50 W/m 16,1 km/h (3 Bft) 97,87 %
18.11.2023 10:30 5,5 C 5,6 C 3,3 C 99 % 1022,4 hPa 0,0 l/m 0 min 0 min 51 W/m 16,1 km/h (3 Bft) 95,74 %
18.11.2023 10:32 5,6 C 5,6 C 3,3 C 99 % 1022,5 hPa 0,0 l/m 0 min 0 min 52 W/m 12,9 km/h (3 Bft) 97,87 %
18.11.2023 10:34 5,6 C 5,6 C 3,3 C 99 % 1022,5 hPa 0,0 l/m 0 min 0 min 53 W/m 12,9 km/h (3 Bft) 97,83 %
18.11.2023 10:36 5,6 C 5,6 C 3,3 C 99 % 1022,5 hPa 0,0 l/m 0 min 0 min 53 W/m 9,7 km/h (2 Bft) 95,74 %
18.11.2023 10:38 5,6 C 5,6 C 3,3 C 99 % 1022,6 hPa 0,0 l/m 0 min 0 min 53 W/m 16,1 km/h (3 Bft) 97,87 %
18.11.2023 10:40 5,6 C 5,6 C 3,3 C 99 % 1022,5 hPa 0,0 l/m 0 min 0 min 50 W/m 6,4 km/h (2 Bft) 97,87 %
18.11.2023 10:42 5,6 C 5,6 C 3,3 C 99 % 1022,4 hPa 0,0 l/m 0 min 0 min 45 W/m 12,9 km/h (3 Bft) 95,74 %
18.11.2023 10:44 5,7 C 5,6 C 3,3 C 99 % 1022,4 hPa 0,0 l/m 0 min 0 min 42 W/m 12,9 km/h (3 Bft) 97,87 %
18.11.2023 10:46 5,7 C 5,6 C 3,3 C 99 % 1022,4 hPa 0,0 l/m 0 min 0 min 43 W/m 6,4 km/h (2 Bft) 97,87 %
18.11.2023 10:48 5,7 C 5,6 C 3,3 C 99 % 1022,4 hPa 0,0 l/m 0 min 0 min 47 W/m 6,4 km/h (2 Bft) 97,83 %
18.11.2023 10:50 5,7 C 5,6 C 3,3 C 99 % 1022,4 hPa 0,0 l/m 0 min 0 min 52 W/m 12,9 km/h (3 Bft) 97,87 %
18.11.2023 10:52 5,7 C 5,6 C 3,3 C 99 % 1022,4 hPa 0,0 l/m 0 min 0 min 55 W/m 19,3 km/h (3 Bft) 97,87 %
18.11.2023 10:54 5,8 C 5,6 C 3,3 C 99 % 1022,4 hPa 0,0 l/m 0 min 0 min 55 W/m 16,1 km/h (3 Bft) 97,87 %
18.11.2023 10:56 5,8 C 5,6 C 3,3 C 99 % 1022,3 hPa 0,0 l/m 0 min 0 min 50 W/m 12,9 km/h (3 Bft) 95,74 %
18.11.2023 10:58 5,8 C 5,6 C 3,3 C 99 % 1022,3 hPa 0,0 l/m 0 min 0 min 46 W/m 12,9 km/h (3 Bft) 97,87 %
18.11.2023 11:00 5,8 C 5,6 C 3,3 C 99 % 1022,4 hPa 0,0 l/m 0 min 0 min 47 W/m 16,1 km/h (3 Bft) 97,87 %
18.11.2023 11:02 5,8 C 5,6 C 3,3 C 99 % 1022,2 hPa 0,0 l/m 0 min 0 min 50 W/m 12,9 km/h (3 Bft) 100,00 %
18.11.2023 11:04 5,8 C 5,6 C 3,9 C 99 % 1022,3 hPa 0,0 l/m 0 min 0 min 53 W/m 12,9 km/h (3 Bft) 96,08 %
18.11.2023 11:10 5,9 C 5,6 C 3,9 C 98 % 1022,2 hPa 0,0 l/m 0 min 0 min 54 W/m 16,1 km/h (3 Bft) 96,48 %
18.11.2023 11:12 5,9 C 5,6 C 3,9 C 98 % 1022,1 hPa 0,0 l/m 0 min 0 min 51 W/m 6,4 km/h (2 Bft) 97,83 %
18.11.2023 11:14 5,9 C 6,1 C 3,9 C 98 % 1022,0 hPa 0,0 l/m 0 min 0 min 51 W/m 16,1 km/h (3 Bft) 97,87 %
18.11.2023 11:16 6,0 C 6,1 C 3,9 C 98 % 1022,0 hPa 0,0 l/m 0 min 0 min 54 W/m 19,3 km/h (3 Bft) 97,87 %
18.11.2023 11:18 6,0 C 6,1 C 3,9 C 99 % 1021,9 hPa 0,0 l/m 0 min 0 min 58 W/m 19,3 km/h (3 Bft) 100,00 %
18.11.2023 11:20 6,1 C 6,1 C 3,9 C 99 % 1021,8 hPa 0,0 l/m 0 min 0 min 57 W/m 22,5 km/h (4 Bft) 97,87 %
18.11.2023 11:22 6,1 C 6,1 C 3,9 C 99 % 1021,7 hPa 0,0 l/m 0 min 0 min 52 W/m 25,7 km/h (4 Bft) 97,87 %
18.11.2023 11:24 6,1 C 6,1 C 3,9 C 98 % 1021,7 hPa 0,0 l/m 0 min 0 min 49 W/m 16,1 km/h (3 Bft) 97,87 %
18.11.2023 11:26 6,1 C 6,1 C 3,9 C 98 % 1021,7 hPa 0,0 l/m 0 min 0 min 48 W/m 16,1 km/h (3 Bft) 97,83 %
18.11.2023 11:28 6,1 C 6,1 C 3,9 C 98 % 1021,5 hPa 0,0 l/m 0 min 0 min 46 W/m 12,9 km/h (3 Bft) 97,87 %
18.11.2023 11:30 6,1 C 6,1 C 3,9 C 98 % 1021,5 hPa 0,0 l/m 0 min 0 min 43 W/m 16,1 km/h (3 Bft) 97,87 %
18.11.2023 11:32 6,2 C 6,1 C 3,9 C 98 % 1021,5 hPa 0,0 l/m 0 min 0 min 39 W/m 19,3 km/h (3 Bft) 97,87 %
18.11.2023 11:34 6,2 C 6,1 C 3,9 C 98 % 1021,5 hPa 0,0 l/m 0 min 0 min 36 W/m 16,1 km/h (3 Bft) 95,74 %
18.11.2023 11:36 6,2 C 6,1 C 3,9 C 98 % 1021,5 hPa 0,0 l/m 0 min 0 min 35 W/m 22,5 km/h (4 Bft) 97,87 %
18.11.2023 11:38 6,2 C 6,1 C 3,9 C 98 % 1021,5 hPa 0,0 l/m 0 min 0 min 35 W/m 16,1 km/h (3 Bft) 97,87 %
18.11.2023 11:40 6,2 C 6,1 C 3,9 C 98 % 1021,4 hPa 0,0 l/m 0 min 0 min 32 W/m 19,3 km/h (3 Bft) 100,00 %
18.11.2023 11:42 6,2 C 6,1 C 3,9 C 98 % 1021,3 hPa 0,0 l/m 0 min 0 min 27 W/m 16,1 km/h (3 Bft) 100,00 %
18.11.2023 11:44 6,2 C 6,1 C 3,9 C 98 % 1021,3 hPa 0,0 l/m 0 min 0 min 25 W/m 16,1 km/h (3 Bft) 100,00 %
18.11.2023 11:46 6,2 C 6,1 C 3,9 C 98 % 1021,3 hPa 0,0 l/m 0 min 0 min 26 W/m 16,1 km/h (3 Bft) 100,00 %
18.11.2023 11:48 6,3 C 6,1 C 3,9 C 98 % 1021,4 hPa 0,0 l/m 0 min 0 min 30 W/m 19,3 km/h (3 Bft) 100,00 %
18.11.2023 11:50 6,3 C 6,1 C 3,9 C 98 % 1021,4 hPa 0,0 l/m 0 min 0 min 34 W/m 12,9 km/h (3 Bft) 100,00 %
18.11.2023 11:52 6,3 C 6,1 C 3,9 C 98 % 1021,3 hPa 0,0 l/m 0 min 2 min 40 W/m 12,9 km/h (3 Bft) 100,00 %
18.11.2023 11:54 6,3 C 6,1 C 3,9 C 98 % 1021,3 hPa 0,0 l/m 0 min 0 min 47 W/m 12,9 km/h (3 Bft) 100,00 %
18.11.2023 11:56 6,3 C 6,1 C 3,9 C 98 % 1021,4 hPa 0,0 l/m 0 min 0 min 53 W/m 16,1 km/h (3 Bft) 97,87 %
18.11.2023 11:58 6,3 C 6,1 C 3,9 C 98 % 1021,4 hPa 0,0 l/m 0 min 0 min 54 W/m 16,1 km/h (3 Bft) 100,00 %
18.11.2023 12:00 6,4 C 6,1 C 3,9 C 98 % 1021,3 hPa 0,0 l/m 0 min 0 min 54 W/m 16,1 km/h (3 Bft) 100,00 %
18.11.2023 12:02 6,4 C 6,1 C 3,9 C 98 % 1021,2 hPa 0,0 l/m 0 min 0 min 55 W/m 6,4 km/h (2 Bft) 97,87 %
18.11.2023 12:04 6,4 C 6,1 C 3,9 C 98 % 1021,1 hPa 0,0 l/m 0 min 0 min 52 W/m 16,1 km/h (3 Bft) 96,00 %
18.11.2023 12:08 6,5 C 6,1 C 3,9 C 98 % 1021,1 hPa 0,0 l/m 0 min 0 min 46 W/m 19,3 km/h (3 Bft) 97,83 %
18.11.2023 12:10 6,5 C 6,1 C 3,9 C 98 % 1021,0 hPa 0,0 l/m 0 min 0 min 40 W/m 16,1 km/h (3 Bft) 97,87 %
18.11.2023 12:12 6,6 C 6,1 C 3,9 C 98 % 1021,0 hPa 0,0 l/m 0 min 0 min 38 W/m 16,1 km/h (3 Bft) 97,87 %
18.11.2023 12:16 6,6 C 6,1 C 3,9 C 98 % 1020,9 hPa 0,0 l/m 0 min 0 min 36 W/m 12,9 km/h (3 Bft) 96,81 %
18.11.2023 12:18 6,6 C 6,1 C 3,9 C 98 % 1020,9 hPa 0,0 l/m 0 min 0 min 38 W/m 12,9 km/h (3 Bft) 97,87 %
18.11.2023 12:20 6,6 C 6,1 C 3,9 C 98 % 1021,0 hPa 0,0 l/m 0 min 0 min 35 W/m 12,9 km/h (3 Bft) 97,87 %
18.11.2023 12:22 6,6 C 6,1 C 3,9 C 98 % 1021,0 hPa 0,0 l/m 0 min 0 min 30 W/m 12,9 km/h (3 Bft) 93,48 %
18.11.2023 12:24 6,6 C 6,1 C 3,9 C 98 % 1021,1 hPa 0,0 l/m 0 min 0 min 30 W/m 9,7 km/h (2 Bft) 95,74 %
18.11.2023 12:26 6,6 C 6,1 C 3,9 C 98 % 1021,1 hPa 0,0 l/m 0 min 2 min 39 W/m 16,1 km/h (3 Bft) 93,62 %
18.11.2023 12:28 6,7 C 6,1 C 3,9 C 97 % 1021,1 hPa 0,0 l/m 0 min 2 min 48 W/m 16,1 km/h (3 Bft) 95,74 %
18.11.2023 12:30 6,7 C 6,7 C 3,9 C 97 % 1021,1 hPa 0,0 l/m 0 min 2 min 61 W/m 6,4 km/h (2 Bft) 97,87 %
18.11.2023 12:32 6,7 C 6,7 C 3,9 C 97 % 1021,0 hPa 0,0 l/m 0 min 2 min 64 W/m 12,9 km/h (3 Bft) 97,87 %
18.11.2023 12:34 6,7 C 6,7 C 3,9 C 97 % 1021,0 hPa 0,0 l/m 0 min 0 min 61 W/m 6,4 km/h (2 Bft) 97,87 %
18.11.2023 12:36 6,7 C 6,7 C 3,9 C 98 % 1020,9 hPa 0,0 l/m 0 min 0 min 58 W/m 12,9 km/h (3 Bft) 95,65 %
18.11.2023 12:38 6,8 C 6,7 C 3,9 C 98 % 1020,9 hPa 0,0 l/m 0 min 0 min 58 W/m 12,9 km/h (3 Bft) 95,74 %
18.11.2023 12:40 6,8 C 6,7 C 3,9 C 97 % 1020,7 hPa 0,0 l/m 0 min 0 min 60 W/m 6,4 km/h (2 Bft) 95,74 %
18.11.2023 12:42 6,8 C 6,7 C 3,9 C 97 % 1020,6 hPa 0,0 l/m 0 min 2 min 63 W/m 16,1 km/h (3 Bft) 95,74 %
18.11.2023 12:44 6,8 C 6,7 C 3,9 C 97 % 1020,7 hPa 0,0 l/m 0 min 0 min 63 W/m 12,9 km/h (3 Bft) 93,62 %
18.11.2023 12:46 6,8 C 6,7 C 3,9 C 97 % 1020,6 hPa 0,0 l/m 0 min 0 min 62 W/m 6,4 km/h (2 Bft) 97,87 %
18.11.2023 12:48 6,9 C 6,7 C 3,9 C 97 % 1020,6 hPa 0,0 l/m 0 min 0 min 59 W/m 9,7 km/h (2 Bft) 97,87 %
18.11.2023 12:50 6,9 C 6,7 C 3,9 C 97 % 1020,6 hPa 0,0 l/m 0 min 0 min 54 W/m 6,4 km/h (2 Bft) 97,87 %
18.11.2023 12:52 6,9 C 6,7 C 3,9 C 97 % 1020,7 hPa 0,0 l/m 0 min 0 min 48 W/m 12,9 km/h (3 Bft) 97,83 %
18.11.2023 12:54 6,9 C 6,7 C 3,9 C 97 % 1020,7 hPa 0,0 l/m 0 min 0 min 45 W/m 6,4 km/h (2 Bft) 95,92 %
18.11.2023 12:56 6,9 C 6,7 C 3,9 C 97 % 1020,8 hPa 0,0 l/m 0 min 0 min 42 W/m 16,1 km/h (3 Bft) 97,14 %
18.11.2023 12:58 6,9 C 6,7 C 3,9 C 97 % 1020,8 hPa 0,0 l/m 0 min 0 min 38 W/m 6,4 km/h (2 Bft) 95,92 %
18.11.2023 13:00 6,9 C 6,7 C 3,9 C 97 % 1020,7 hPa 0,0 l/m 0 min 0 min 35 W/m 12,9 km/h (3 Bft) 97,87 %
18.11.2023 13:02 7,0 C 6,7 C 3,9 C 97 % 1020,8 hPa 0,0 l/m 0 min 2 min 34 W/m 6,4 km/h (2 Bft) 93,75 %
18.11.2023 13:04 7,0 C 6,7 C 3,9 C 97 % 1020,7 hPa 0,0 l/m 0 min 0 min 33 W/m 12,9 km/h (3 Bft) 96,15 %
18.11.2023 13:10 7,1 C 6,7 C 3,9 C 97 % 1020,2 hPa 0,0 l/m 0 min 0 min 23 W/m 12,9 km/h (3 Bft) 95,38 %
18.11.2023 13:12 7,1 C 6,7 C 3,9 C 97 % 1020,1 hPa 0,0 l/m 0 min 0 min 17 W/m 9,7 km/h (2 Bft) 95,74 %
18.11.2023 13:14 7,1 C 6,7 C 3,9 C 97 % 1020,1 hPa 0,0 l/m 0 min 0 min 19 W/m 9,7 km/h (2 Bft) 95,74 %
18.11.2023 13:16 7,1 C 6,7 C 3,9 C 97 % 1020,0 hPa 0,0 l/m 0 min 2 min 25 W/m 6,4 km/h (2 Bft) 95,74 %
18.11.2023 13:18 7,1 C 6,7 C 3,9 C 97 % 1020,0 hPa 0,0 l/m 0 min 2 min 28 W/m 12,9 km/h (3 Bft) 93,62 %
18.11.2023 13:20 7,1 C 6,7 C 3,9 C 97 % 1019,8 hPa 0,0 l/m 0 min 2 min 31 W/m 16,1 km/h (3 Bft) 95,74 %
18.11.2023 13:22 7,1 C 6,7 C 3,9 C 97 % 1019,8 hPa 0,0 l/m 0 min 2 min 33 W/m 16,1 km/h (3 Bft) 89,36 %
18.11.2023 13:24 7,1 C 6,7 C 3,9 C 97 % 1019,7 hPa 0,0 l/m 0 min 2 min 36 W/m 16,1 km/h (3 Bft) 95,74 %
18.11.2023 13:26 7,1 C 6,7 C 4,4 C 97 % 1019,6 hPa 0,0 l/m 0 min 2 min 39 W/m 6,4 km/h (2 Bft) 93,48 %
18.11.2023 13:28 7,1 C 6,7 C 4,4 C 97 % 1019,7 hPa 0,2 l/m 0 min 2 min 40 W/m 19,3 km/h (3 Bft) 95,74 %
18.11.2023 13:30 7,2 C 6,7 C 4,4 C 97 % 1019,7 hPa 0,0 l/m 0 min 0 min 39 W/m 12,9 km/h (3 Bft) 35,48 %
18.11.2023 13:32 7,2 C 6,7 C 4,4 C 97 % 1019,6 hPa 0,0 l/m 0 min 0 min 40 W/m 9,7 km/h (2 Bft) 97,83 %
18.11.2023 13:34 7,2 C 6,7 C 4,4 C 97 % 1019,6 hPa 0,0 l/m 0 min 0 min 39 W/m 12,9 km/h (3 Bft) 95,74 %
18.11.2023 13:36 7,2 C 6,7 C 4,4 C 97 % 1019,6 hPa 0,0 l/m 0 min 2 min 39 W/m 19,3 km/h (3 Bft) 97,87 %
18.11.2023 13:38 7,2 C 6,7 C 4,4 C 97 % 1019,6 hPa 0,0 l/m 0 min 2 min 38 W/m 12,9 km/h (3 Bft) 97,87 %
18.11.2023 13:40 7,2 C 6,7 C 4,4 C 97 % 1019,5 hPa 0,0 l/m 0 min 0 min 36 W/m 19,3 km/h (3 Bft) 100,00 %
18.11.2023 13:44 7,2 C 6,7 C 4,4 C 97 % 1019,3 hPa 0,0 l/m 0 min 4 min 40 W/m 6,4 km/h (2 Bft) 100,00 %
18.11.2023 13:46 7,2 C 6,7 C 4,4 C 97 % 1019,3 hPa 0,0 l/m 0 min 0 min 40 W/m 9,7 km/h (2 Bft) 100,00 %
18.11.2023 13:48 7,2 C 6,7 C 4,4 C 97 % 1019,2 hPa 0,0 l/m 0 min 2 min 40 W/m 6,4 km/h (2 Bft) 100,00 %
18.11.2023 13:50 7,2 C 6,7 C 4,4 C 97 % 1019,2 hPa 0,0 l/m 0 min 2 min 42 W/m 9,7 km/h (2 Bft) 100,00 %
18.11.2023 13:52 7,3 C 6,7 C 4,4 C 97 % 1019,1 hPa 0,0 l/m 0 min 2 min 45 W/m 12,9 km/h (3 Bft) 97,87 %
18.11.2023 13:54 7,3 C 6,7 C 4,4 C 97 % 1019,0 hPa 0,0 l/m 0 min 2 min 47 W/m 6,4 km/h (2 Bft) 100,00 %
18.11.2023 13:56 7,3 C 6,7 C 4,4 C 97 % 1018,8 hPa 0,2 l/m 0 min 2 min 42 W/m 12,9 km/h (3 Bft) 97,87 %
18.11.2023 13:58 7,3 C 6,7 C 4,4 C 97 % 1018,7 hPa 0,0 l/m 0 min 2 min 39 W/m 16,1 km/h (3 Bft) 100,00 %
18.11.2023 14:00 7,3 C 6,7 C 4,4 C 97 % 1018,8 hPa 0,0 l/m 0 min 2 min 33 W/m 19,3 km/h (3 Bft) 100,00 %
18.11.2023 14:02 7,3 C 6,7 C 4,4 C 97 % 1018,8 hPa 0,0 l/m 0 min 2 min 26 W/m 16,1 km/h (3 Bft) 100,00 %
18.11.2023 14:04 7,3 C 6,7 C 4,4 C 97 % 1018,7 hPa 0,0 l/m 0 min 2 min 23 W/m 16,1 km/h (3 Bft) 100,00 %
18.11.2023 14:06 7,3 C 6,7 C 4,4 C 97 % 1018,7 hPa 0,0 l/m 0 min 0 min 21 W/m 12,9 km/h (3 Bft) 98,04 %
18.11.2023 14:08 7,3 C 6,7 C 3,9 C 97 % 1018,6 hPa 0,0 l/m 0 min 0 min 19 W/m 19,3 km/h (3 Bft) 100,00 %
18.11.2023 14:10 7,3 C 6,7 C 3,9 C 97 % 1018,6 hPa 0,2 l/m 0 min 0 min 22 W/m 16,1 km/h (3 Bft) 100,00 %
18.11.2023 14:12 7,3 C 6,7 C 3,9 C 97 % 1018,4 hPa 0,0 l/m 0 min 0 min 26 W/m 19,3 km/h (3 Bft) 100,00 %
18.11.2023 14:14 7,3 C 6,7 C 3,9 C 97 % 1018,2 hPa 0,0 l/m 0 min 0 min 35 W/m 19,3 km/h (3 Bft) 100,00 %
18.11.2023 14:16 7,3 C 6,7 C 4,4 C 97 % 1018,0 hPa 0,0 l/m 0 min 0 min 40 W/m 12,9 km/h (3 Bft) 100,00 %
18.11.2023 14:18 7,3 C 6,7 C 4,4 C 97 % 1018,0 hPa 0,0 l/m 0 min 0 min 45 W/m 9,7 km/h (2 Bft) 100,00 %
18.11.2023 14:20 7,3 C 6,7 C 4,4 C 97 % 1018,0 hPa 0,0 l/m 0 min 0 min 46 W/m 16,1 km/h (3 Bft) 97,87 %
18.11.2023 14:22 7,3 C 6,7 C 4,4 C 97 % 1017,9 hPa 0,0 l/m 0 min 0 min 42 W/m 16,1 km/h (3 Bft) 100,00 %
18.11.2023 14:24 7,3 C 6,7 C 4,4 C 97 % 1017,8 hPa 0,0 l/m 0 min 0 min 40 W/m 19,3 km/h (3 Bft) 100,00 %
18.11.2023 14:26 7,3 C 6,7 C 4,4 C 97 % 1017,6 hPa 0,0 l/m 0 min 0 min 40 W/m 16,1 km/h (3 Bft) 100,00 %
18.11.2023 14:28 7,3 C 6,7 C 4,4 C 97 % 1017,6 hPa 0,0 l/m 0 min 0 min 36 W/m 19,3 km/h (3 Bft) 100,00 %
18.11.2023 14:30 7,3 C 6,7 C 4,4 C 97 % 1017,5 hPa 0,0 l/m 0 min 2 min 36 W/m 22,5 km/h (4 Bft) 100,00 %
18.11.2023 14:32 7,3 C 6,7 C 4,4 C 97 % 1017,5 hPa 0,0 l/m 0 min 0 min 39 W/m 12,9 km/h (3 Bft) 100,00 %
18.11.2023 14:34 7,3 C 6,7 C 4,4 C 97 % 1017,4 hPa 0,0 l/m 0 min 0 min 40 W/m 12,9 km/h (3 Bft) 97,87 %
18.11.2023 14:36 7,3 C 6,7 C 4,4 C 97 % 1017,3 hPa 0,0 l/m 0 min 2 min 43 W/m 19,3 km/h (3 Bft) 100,00 %
18.11.2023 14:38 7,3 C 6,7 C 4,4 C 97 % 1017,4 hPa 0,0 l/m 0 min 2 min 48 W/m 12,9 km/h (3 Bft) 97,87 %
18.11.2023 14:40 7,3 C 6,7 C 4,4 C 97 % 1017,2 hPa 0,0 l/m 0 min 2 min 57 W/m 19,3 km/h (3 Bft) 100,00 %
18.11.2023 14:42 7,3 C 6,7 C 4,4 C 97 % 1017,2 hPa 0,0 l/m 0 min 2 min 59 W/m 19,3 km/h (3 Bft) 95,74 %
18.11.2023 14:44 7,3 C 6,7 C 4,4 C 97 % 1017,2 hPa 0,0 l/m 0 min 0 min 53 W/m 22,5 km/h (4 Bft) 100,00 %
18.11.2023 14:46 7,3 C 6,7 C 4,4 C 97 % 1017,2 hPa 0,0 l/m 0 min 2 min 46 W/m 25,7 km/h (4 Bft) 100,00 %
18.11.2023 14:48 7,3 C 6,7 C 4,4 C 97 % 1017,1 hPa 0,0 l/m 0 min 2 min 42 W/m 16,1 km/h (3 Bft) 100,00 %
18.11.2023 14:50 7,3 C 6,7 C 4,4 C 97 % 1017,1 hPa 0,0 l/m 0 min 0 min 40 W/m 22,5 km/h (4 Bft) 100,00 %
18.11.2023 14:52 7,3 C 6,7 C 4,4 C 97 % 1017,1 hPa 0,0 l/m 0 min 0 min 33 W/m 22,5 km/h (4 Bft) 100,00 %
18.11.2023 14:54 7,3 C 6,7 C 4,4 C 97 % 1017,1 hPa 0,2 l/m 0 min 0 min 30 W/m 16,1 km/h (3 Bft) 100,00 %
18.11.2023 14:56 7,3 C 6,7 C 4,4 C 97 % 1017,0 hPa 0,0 l/m 0 min 2 min 28 W/m 29,0 km/h (5 Bft) 95,74 %
18.11.2023 14:58 7,3 C 6,7 C 4,4 C 97 % 1016,9 hPa 0,0 l/m 0 min 0 min 30 W/m 19,3 km/h (3 Bft) 93,88 %
18.11.2023 15:00 7,3 C 6,7 C 4,4 C 97 % 1016,9 hPa 0,0 l/m 0 min 0 min 32 W/m 22,5 km/h (4 Bft) 95,65 %
18.11.2023 15:02 7,3 C 6,7 C 4,4 C 97 % 1016,9 hPa 0,0 l/m 0 min 0 min 33 W/m 22,5 km/h (4 Bft) 95,74 %
18.11.2023 15:04 7,3 C 6,7 C 4,4 C 97 % 1016,8 hPa 0,0 l/m 0 min 2 min 32 W/m 19,3 km/h (3 Bft) 95,45 %
18.11.2023 15:08 7,3 C 6,7 C 4,4 C 97 % 1016,8 hPa 0,0 l/m 0 min 0 min 25 W/m 19,3 km/h (3 Bft) 96,08 %
18.11.2023 15:09 7,3 C 6,7 C 4,4 C 97 % 1016,7 hPa 0,0 l/m 0 min 0 min 23 W/m 19,3 km/h (3 Bft) 91,30 %
18.11.2023 15:10 7,3 C 6,7 C 4,4 C 97 % 1016,7 hPa 0,0 l/m 0 min 0 min 24 W/m 32,2 km/h (5 Bft) 97,37 %
18.11.2023 15:14 7,3 C 6,7 C 4,4 C 97 % 1016,6 hPa 0,0 l/m 0 min 4 min 23 W/m 22,5 km/h (4 Bft) 95,65 %
18.11.2023 15:16 7,3 C 6,7 C 4,4 C 97 % 1016,5 hPa 0,0 l/m 0 min 2 min 21 W/m 19,3 km/h (3 Bft) 95,74 %
18.11.2023 15:18 7,3 C 6,7 C 4,4 C 97 % 1016,5 hPa 0,0 l/m 0 min 2 min 20 W/m 29,0 km/h (5 Bft) 93,62 %
18.11.2023 15:20 7,3 C 6,7 C 4,4 C 97 % 1016,4 hPa 0,0 l/m 0 min 0 min 19 W/m 22,5 km/h (4 Bft) 93,62 %
18.11.2023 15:22 7,3 C 6,7 C 4,4 C 97 % 1016,4 hPa 0,0 l/m 0 min 0 min 17 W/m 19,3 km/h (3 Bft) 95,74 %
18.11.2023 15:24 7,3 C 6,7 C 4,4 C 97 % 1016,4 hPa 0,0 l/m 0 min 0 min 14 W/m 22,5 km/h (4 Bft) 95,74 %
18.11.2023 15:26 7,3 C 6,7 C 4,4 C 97 % 1016,4 hPa 0,0 l/m 0 min 0 min 14 W/m 16,1 km/h (3 Bft) 95,74 %
18.11.2023 15:28 7,3 C 6,7 C 4,4 C 97 % 1016,4 hPa 0,0 l/m 0 min 0 min 12 W/m 25,7 km/h (4 Bft) 95,74 %
18.11.2023 15:30 7,3 C 6,7 C 4,4 C 97 % 1016,4 hPa 0,0 l/m 0 min 0 min 11 W/m 22,5 km/h (4 Bft) 91,30 %
18.11.2023 15:32 7,3 C 6,7 C 4,4 C 98 % 1016,3 hPa 0,0 l/m 0 min 0 min 12 W/m 19,3 km/h (3 Bft) 93,62 %
18.11.2023 15:34 7,2 C 6,7 C 4,4 C 98 % 1016,3 hPa 0,0 l/m 0 min 2 min 12 W/m 22,5 km/h (4 Bft) 93,62 %
18.11.2023 15:36 7,3 C 6,7 C 4,4 C 98 % 1016,3 hPa 0,2 l/m 0 min 2 min 10 W/m 29,0 km/h (5 Bft) 91,49 %
18.11.2023 15:38 7,3 C 6,7 C 4,4 C 98 % 1016,2 hPa 0,0 l/m 0 min 2 min 10 W/m 12,9 km/h (3 Bft) 93,62 %
18.11.2023 15:40 7,2 C 6,7 C 4,4 C 98 % 1016,2 hPa 0,2 l/m 0 min 2 min 9 W/m 19,3 km/h (3 Bft) 95,74 %
18.11.2023 15:42 7,2 C 6,7 C 4,4 C 98 % 1016,1 hPa 0,0 l/m 0 min 2 min 9 W/m 22,5 km/h (4 Bft) 95,74 %
18.11.2023 15:44 7,2 C 6,7 C 4,4 C 98 % 1015,9 hPa 0,0 l/m 0 min 2 min 9 W/m 25,7 km/h (4 Bft) 93,48 %
18.11.2023 15:46 7,2 C 6,7 C 4,4 C 98 % 1016,1 hPa 0,2 l/m 0 min 2 min 7 W/m 25,7 km/h (4 Bft) 93,62 %
18.11.2023 15:48 7,2 C 6,7 C 4,4 C 98 % 1016,0 hPa 0,0 l/m 0 min 2 min 3 W/m 19,3 km/h (3 Bft) 93,62 %
18.11.2023 15:50 7,2 C 6,1 C 4,4 C 98 % 1016,1 hPa 0,0 l/m 0 min 2 min 0 W/m 29,0 km/h (5 Bft) 97,87 %
18.11.2023 15:52 7,2 C 6,1 C 4,4 C 98 % 1016,2 hPa 0,0 l/m 0 min 2 min 0 W/m 12,9 km/h (3 Bft) 95,74 %
18.11.2023 15:54 7,2 C 6,1 C 4,4 C 98 % 1016,3 hPa 0,2 l/m 0 min 2 min 0 W/m 16,1 km/h (3 Bft) 97,92 %
18.11.2023 15:56 7,2 C 6,1 C 4,4 C 98 % 1016,1 hPa 0,2 l/m 0 min 2 min 0 W/m 12,9 km/h (3 Bft) 95,74 %
18.11.2023 15:58 7,2 C 6,1 C 4,4 C 98 % 1015,9 hPa 0,0 l/m 0 min 2 min 0 W/m 22,5 km/h (4 Bft) 97,87 %
18.11.2023 16:00 7,2 C 6,1 C 4,4 C 98 % 1015,6 hPa 0,2 l/m 0 min 2 min 0 W/m 22,5 km/h (4 Bft) 95,65 %
18.11.2023 16:02 7,2 C 6,1 C 4,4 C 98 % 1015,4 hPa 0,2 l/m 0 min 2 min 0 W/m 22,5 km/h (4 Bft) 93,62 %
18.11.2023 16:04 7,2 C 6,1 C 4,4 C 98 % 1015,5 hPa 0,0 l/m 0 min 2 min 0 W/m 25,7 km/h (4 Bft) 95,74 %
18.11.2023 16:08 7,2 C 6,1 C 4,4 C 98 % 1015,5 hPa 0,4 l/m 0 min 4 min 0 W/m 32,2 km/h (5 Bft) 96,77 %
18.11.2023 16:09 7,1 C 6,1 C 4,4 C 98 % 1015,4 hPa 0,2 l/m 0 min 1 min 0 W/m 12,9 km/h (3 Bft) 100,00 %
18.11.2023 16:10 7,1 C 6,1 C 3,9 C 98 % 1015,4 hPa 0,4 l/m 0 min 1 min 0 W/m 25,7 km/h (4 Bft) 99,12 %
18.11.2023 16:14 7,1 C 6,1 C 4,4 C 98 % 1015,2 hPa 0,0 l/m 0 min 4 min 0 W/m 19,3 km/h (3 Bft) 97,87 %
18.11.2023 16:16 7,1 C 6,1 C 4,4 C 98 % 1015,2 hPa 0,0 l/m 0 min 2 min 0 W/m 16,1 km/h (3 Bft) 100,00 %
18.11.2023 16:18 7,1 C 6,1 C 4,4 C 98 % 1015,2 hPa 0,2 l/m 0 min 2 min 0 W/m 22,5 km/h (4 Bft) 100,00 %
18.11.2023 16:20 7,1 C 6,1 C 4,4 C 98 % 1015,3 hPa 0,2 l/m 0 min 2 min 0 W/m 22,5 km/h (4 Bft) 100,00 %
18.11.2023 16:22 7,1 C 6,1 C 3,9 C 98 % 1015,2 hPa 0,2 l/m 0 min 2 min 0 W/m 29,0 km/h (5 Bft) 97,87 %
18.11.2023 16:24 7,1 C 6,1 C 4,4 C 98 % 1015,2 hPa 0,2 l/m 0 min 2 min 0 W/m 22,5 km/h (4 Bft) 100,00 %
18.11.2023 16:26 7,1 C 6,1 C 4,4 C 98 % 1015,2 hPa 0,2 l/m 0 min 2 min 0 W/m 22,5 km/h (4 Bft) 100,00 %
18.11.2023 16:28 7,1 C 6,1 C 4,4 C 98 % 1015,3 hPa 0,0 l/m 0 min 2 min 0 W/m 25,7 km/h (4 Bft) 100,00 %
18.11.2023 16:30 7,1 C 6,1 C 4,4 C 98 % 1015,1 hPa 0,2 l/m 0 min 2 min 0 W/m 22,5 km/h (4 Bft) 100,00 %
18.11.2023 16:32 7,1 C 6,1 C 4,4 C 98 % 1015,1 hPa 0,2 l/m 0 min 2 min 0 W/m 12,9 km/h (3 Bft) 100,00 %
18.11.2023 16:34 7,1 C 6,1 C 4,4 C 98 % 1015,0 hPa 0,2 l/m 0 min 2 min 0 W/m 35,4 km/h (5 Bft) 100,00 %
18.11.2023 16:36 7,1 C 6,1 C 4,4 C 98 % 1015,0 hPa 0,0 l/m 0 min 2 min 0 W/m 25,7 km/h (4 Bft) 100,00 %
18.11.2023 16:38 7,1 C 6,1 C 4,4 C 98 % 1014,9 hPa 0,2 l/m 0 min 2 min 0 W/m 12,9 km/h (3 Bft) 100,00 %
18.11.2023 16:40 7,1 C 6,1 C 4,4 C 98 % 1014,6 hPa 0,2 l/m 0 min 2 min 0 W/m 19,3 km/h (3 Bft) 100,00 %
18.11.2023 16:42 7,1 C 6,1 C 4,4 C 98 % 1014,7 hPa 0,0 l/m 0 min 2 min 0 W/m 22,5 km/h (4 Bft) 100,00 %
18.11.2023 16:44 7,1 C 6,1 C 4,4 C 98 % 1014,7 hPa 0,2 l/m 0 min 2 min 0 W/m 16,1 km/h (3 Bft) 100,00 %
18.11.2023 16:46 7,1 C 6,1 C 4,4 C 98 % 1014,6 hPa 0,0 l/m 0 min 2 min 0 W/m 19,3 km/h (3 Bft) 97,87 %
18.11.2023 16:48 7,1 C 6,1 C 4,4 C 98 % 1014,6 hPa 0,2 l/m 0 min 2 min 0 W/m 29,0 km/h (5 Bft) 97,83 %
18.11.2023 16:50 7,1 C 6,1 C 4,4 C 98 % 1014,6 hPa 0,0 l/m 0 min 2 min 0 W/m 25,7 km/h (4 Bft) 100,00 %
18.11.2023 16:52 7,1 C 6,1 C 4,4 C 98 % 1014,6 hPa 0,2 l/m 0 min 2 min 0 W/m 29,0 km/h (5 Bft) 97,87 %
18.11.2023 16:54 7,1 C 6,1 C 4,4 C 98 % 1014,5 hPa 0,2 l/m 0 min 2 min 0 W/m 25,7 km/h (4 Bft) 97,87 %
18.11.2023 16:56 7,1 C 6,1 C 4,4 C 98 % 1014,5 hPa 0,0 l/m 0 min 2 min 0 W/m 25,7 km/h (4 Bft) 95,74 %
18.11.2023 16:58 7,1 C 6,1 C 4,4 C 98 % 1014,5 hPa 0,2 l/m 0 min 2 min 0 W/m 22,5 km/h (4 Bft) 95,74 %
18.11.2023 17:00 7,1 C 6,1 C 4,4 C 98 % 1014,5 hPa 0,0 l/m 0 min 2 min 0 W/m 19,3 km/h (3 Bft) 97,87 %
18.11.2023 17:02 7,1 C 6,1 C 4,4 C 98 % 1014,4 hPa 0,2 l/m 0 min 2 min 0 W/m 25,7 km/h (4 Bft) 95,65 %
18.11.2023 17:04 7,1 C 6,1 C 4,4 C 98 % 1014,3 hPa 0,0 l/m 0 min 2 min 0 W/m 19,3 km/h (3 Bft) 97,87 %
18.11.2023 17:10 7,1 C 6,1 C 4,4 C 98 % 1014,3 hPa 0,6 l/m 0 min 5 min 0 W/m 22,5 km/h (4 Bft) 97,87 %
18.11.2023 17:12 7,1 C 6,1 C 4,4 C 98 % 1014,3 hPa 0,2 l/m 0 min 2 min 0 W/m 22,5 km/h (4 Bft) 97,87 %
18.11.2023 17:14 7,1 C 6,1 C 4,4 C 98 % 1014,3 hPa 0,2 l/m 0 min 2 min 0 W/m 22,5 km/h (4 Bft) 97,87 %
18.11.2023 17:16 7,1 C 6,1 C 4,4 C 98 % 1014,2 hPa 0,0 l/m 0 min 2 min 0 W/m 16,1 km/h (3 Bft) 97,83 %
18.11.2023 17:18 7,1 C 6,1 C 4,4 C 98 % 1014,3 hPa 0,2 l/m 0 min 2 min 0 W/m 16,1 km/h (3 Bft) 97,87 %
18.11.2023 17:20 7,1 C 6,1 C 4,4 C 98 % 1014,2 hPa 0,2 l/m 0 min 2 min 0 W/m 19,3 km/h (3 Bft) 97,87 %
18.11.2023 17:22 7,1 C 6,1 C 4,4 C 98 % 1014,2 hPa 0,0 l/m 0 min 2 min 0 W/m 25,7 km/h (4 Bft) 95,74 %
18.11.2023 17:24 7,1 C 6,1 C 4,4 C 98 % 1014,1 hPa 0,2 l/m 0 min 2 min 0 W/m 25,7 km/h (4 Bft) 100,00 %
18.11.2023 17:26 7,1 C 6,1 C 4,4 C 98 % 1014,0 hPa 0,2 l/m 0 min 2 min 0 W/m 19,3 km/h (3 Bft) 97,87 %
18.11.2023 17:28 7,1 C 6,1 C 4,4 C 98 % 1014,0 hPa 0,0 l/m 0 min 2 min 0 W/m 22,5 km/h (4 Bft) 57,45 %
18.11.2023 17:30 7,1 C 6,1 C 4,4 C 98 % 1014,0 hPa 0,2 l/m 0 min 2 min 0 W/m 25,7 km/h (4 Bft) 100,00 %
18.11.2023 17:32 7,1 C 6,1 C 4,4 C 98 % 1014,0 hPa 0,0 l/m 0 min 2 min 0 W/m 32,2 km/h (5 Bft) 100,00 %
18.11.2023 17:34 7,2 C 6,1 C 4,4 C 98 % 1013,9 hPa 0,0 l/m 0 min 2 min 0 W/m 22,5 km/h (4 Bft) 100,00 %
18.11.2023 17:36 7,2 C 6,1 C 4,4 C 98 % 1013,9 hPa 0,0 l/m 0 min 2 min 0 W/m 19,3 km/h (3 Bft) 97,87 %
18.11.2023 17:38 7,2 C 6,1 C 4,4 C 99 % 1013,9 hPa 0,0 l/m 0 min 0 min 0 W/m 29,0 km/h (5 Bft) 100,00 %
18.11.2023 17:40 7,2 C 6,1 C 4,4 C 99 % 1014,0 hPa 0,0 l/m 0 min 0 min 0 W/m 16,1 km/h (3 Bft) 100,00 %
18.11.2023 17:42 7,2 C 6,1 C 4,4 C 99 % 1013,9 hPa 0,0 l/m 0 min 0 min 0 W/m 16,1 km/h (3 Bft) 97,87 %
18.11.2023 17:44 7,2 C 6,1 C 4,4 C 98 % 1014,0 hPa 0,0 l/m 0 min 0 min 0 W/m 19,3 km/h (3 Bft) 100,00 %
18.11.2023 17:46 7,2 C 6,1 C 4,4 C 98 % 1014,0 hPa 0,0 l/m 0 min 0 min 0 W/m 19,3 km/h (3 Bft) 97,83 %
18.11.2023 17:48 7,2 C 6,1 C 4,4 C 98 % 1013,9 hPa 0,2 l/m 0 min 0 min 0 W/m 19,3 km/h (3 Bft) 97,87 %
18.11.2023 17:50 7,2 C 6,7 C 4,4 C 98 % 1013,9 hPa 0,0 l/m 0 min 0 min 0 W/m 22,5 km/h (4 Bft) 100,00 %
18.11.2023 17:52 7,2 C 6,7 C 4,4 C 98 % 1013,9 hPa 0,0 l/m 0 min 0 min 0 W/m 12,9 km/h (3 Bft) 100,00 %
18.11.2023 17:54 7,2 C 6,7 C 4,4 C 98 % 1013,7 hPa 0,0 l/m 0 min 0 min 0 W/m 19,3 km/h (3 Bft) 97,87 %
18.11.2023 17:56 7,2 C 6,7 C 4,4 C 98 % 1013,7 hPa 0,0 l/m 0 min 0 min 0 W/m 22,5 km/h (4 Bft) 95,74 %
18.11.2023 17:58 7,2 C 6,7 C 4,4 C 99 % 1013,7 hPa 0,0 l/m 0 min 0 min 0 W/m 25,7 km/h (4 Bft) 97,87 %
18.11.2023 18:00 7,2 C 6,7 C 4,4 C 99 % 1013,7 hPa 0,0 l/m 0 min 0 min 0 W/m 25,7 km/h (4 Bft) 97,96 %
18.11.2023 18:02 7,2 C 6,7 C 4,4 C 99 % 1013,7 hPa 0,0 l/m 0 min 0 min 0 W/m 25,7 km/h (4 Bft) 97,87 %
18.11.2023 18:04 7,2 C 6,7 C 4,4 C 99 % 1013,6 hPa 0,0 l/m 0 min 0 min 0 W/m 16,1 km/h (3 Bft) 97,78 %
18.11.2023 18:10 7,2 C 6,7 C 4,4 C 99 % 1013,6 hPa 0,0 l/m 0 min 0 min 0 W/m 29,0 km/h (5 Bft) 95,04 %
18.11.2023 18:12 7,2 C 6,7 C 4,4 C 99 % 1013,7 hPa 0,2 l/m 0 min 0 min 0 W/m 19,3 km/h (3 Bft) 91,49 %
18.11.2023 18:16 7,3 C 6,7 C 4,4 C 99 % 1013,7 hPa 0,0 l/m 0 min 0 min 0 W/m 16,1 km/h (3 Bft) 95,70 %
18.11.2023 18:18 7,3 C 6,7 C 4,4 C 99 % 1013,7 hPa 0,0 l/m 0 min 0 min 0 W/m 16,1 km/h (3 Bft) 95,74 %
18.11.2023 18:20 7,3 C 6,7 C 4,4 C 99 % 1013,6 hPa 0,0 l/m 0 min 0 min 0 W/m 22,5 km/h (4 Bft) 93,62 %
18.11.2023 18:22 7,3 C 6,7 C 4,4 C 99 % 1013,6 hPa 0,0 l/m 0 min 0 min 0 W/m 19,3 km/h (3 Bft) 95,74 %
18.11.2023 18:24 7,3 C 6,7 C 4,4 C 99 % 1013,6 hPa 0,2 l/m 0 min 2 min 0 W/m 16,1 km/h (3 Bft) 93,62 %
18.11.2023 18:26 7,3 C 6,7 C 4,4 C 99 % 1013,5 hPa 0,0 l/m 0 min 0 min 0 W/m 19,3 km/h (3 Bft) 95,74 %
18.11.2023 18:28 7,3 C 6,7 C 4,4 C 99 % 1013,5 hPa 0,0 l/m 0 min 0 min 0 W/m 29,0 km/h (5 Bft) 93,62 %
18.11.2023 18:30 7,3 C 6,7 C 4,4 C 99 % 1013,4 hPa 0,0 l/m 0 min 0 min 0 W/m 19,3 km/h (3 Bft) 95,65 %
18.11.2023 18:32 7,3 C 6,7 C 4,4 C 99 % 1013,4 hPa 0,0 l/m 0 min 0 min 0 W/m 16,1 km/h (3 Bft) 95,74 %
18.11.2023 18:34 7,3 C 6,7 C 4,4 C 99 % 1013,3 hPa 0,0 l/m 0 min 0 min 0 W/m 12,9 km/h (3 Bft) 95,74 %
18.11.2023 18:36 7,3 C 6,7 C 4,4 C 99 % 1013,4 hPa 0,0 l/m 0 min 0 min 0 W/m 19,3 km/h (3 Bft) 95,74 %
18.11.2023 18:38 7,3 C 6,7 C 4,4 C 99 % 1013,3 hPa 0,0 l/m 0 min 0 min 0 W/m 29,0 km/h (5 Bft) 93,62 %
18.11.2023 18:40 7,3 C 6,7 C 4,4 C 99 % 1013,3 hPa 0,2 l/m 0 min 0 min 0 W/m 19,3 km/h (3 Bft) 97,87 %
18.11.2023 18:42 7,3 C 6,7 C 4,4 C 99 % 1013,3 hPa 0,0 l/m 0 min 0 min 0 W/m 25,7 km/h (4 Bft) 95,74 %
18.11.2023 18:44 7,3 C 6,7 C 4,4 C 99 % 1013,3 hPa 0,0 l/m 0 min 0 min 0 W/m 16,1 km/h (3 Bft) 95,65 %
18.11.2023 18:46 7,3 C 6,7 C 4,4 C 99 % 1013,3 hPa 0,0 l/m 0 min 0 min 0 W/m 19,3 km/h (3 Bft) 95,74 %
18.11.2023 18:48 7,3 C 6,7 C 4,4 C 99 % 1013,2 hPa 0,0 l/m 0 min 0 min 0 W/m 22,5 km/h (4 Bft) 95,74 %
18.11.2023 18:50 7,3 C 6,7 C 4,4 C 99 % 1013,3 hPa 0,0 l/m 0 min 0 min 0 W/m 19,3 km/h (3 Bft) 97,87 %
18.11.2023 18:52 7,3 C 6,7 C 4,4 C 99 % 1013,3 hPa 0,0 l/m 0 min 0 min 0 W/m 12,9 km/h (3 Bft) 95,74 %
18.11.2023 18:54 7,3 C 6,7 C 5,0 C 99 % 1013,3 hPa 0,2 l/m 0 min 0 min 0 W/m 16,1 km/h (3 Bft) 97,87 %
18.11.2023 18:56 7,3 C 6,7 C 5,0 C 99 % 1013,3 hPa 0,0 l/m 0 min 0 min 0 W/m 16,1 km/h (3 Bft) 95,92 %
18.11.2023 18:58 7,4 C 6,7 C 5,0 C 99 % 1013,2 hPa 0,0 l/m 0 min 0 min 0 W/m 22,5 km/h (4 Bft) 97,87 %
18.11.2023 19:00 7,4 C 6,7 C 5,0 C 99 % 1013,1 hPa 0,0 l/m 0 min 0 min 0 W/m 22,5 km/h (4 Bft) 97,87 %
18.11.2023 19:02 7,4 C 6,7 C 5,0 C 99 % 1013,2 hPa 0,0 l/m 0 min 0 min 0 W/m 16,1 km/h (3 Bft) 95,74 %
18.11.2023 19:04 7,4 C 6,7 C 5,0 C 99 % 1013,2 hPa 0,0 l/m 0 min 0 min 0 W/m 16,1 km/h (3 Bft) 97,73 %
18.11.2023 19:08 7,4 C 6,7 C 5,0 C 99 % 1013,2 hPa 0,0 l/m 0 min 0 min 0 W/m 12,9 km/h (3 Bft) 97,00 %
18.11.2023 19:09 7,4 C 6,7 C 5,0 C 99 % 1013,3 hPa 0,0 l/m 0 min 0 min 0 W/m 6,4 km/h (2 Bft) 95,83 %
18.11.2023 19:10 7,4 C 6,7 C 5,0 C 99 % 1013,3 hPa 0,0 l/m 0 min 0 min 0 W/m 16,1 km/h (3 Bft) 99,12 %
18.11.2023 19:14 7,5 C 6,7 C 5,0 C 99 % 1013,3 hPa 0,0 l/m 0 min 0 min 0 W/m 9,7 km/h (2 Bft) 97,87 %
18.11.2023 19:16 7,5 C 6,7 C 5,0 C 99 % 1013,2 hPa 0,0 l/m 0 min 0 min 0 W/m 16,1 km/h (3 Bft) 100,00 %
18.11.2023 19:18 7,5 C 6,7 C 5,0 C 99 % 1013,2 hPa 0,0 l/m 0 min 0 min 0 W/m 16,1 km/h (3 Bft) 97,87 %
18.11.2023 19:20 7,5 C 6,7 C 5,0 C 99 % 1013,1 hPa 0,0 l/m 0 min 0 min 0 W/m 16,1 km/h (3 Bft) 97,83 %
18.11.2023 19:22 7,6 C 6,7 C 5,0 C 99 % 1013,2 hPa 0,0 l/m 0 min 0 min 0 W/m 22,5 km/h (4 Bft) 97,87 %
18.11.2023 19:24 7,6 C 6,7 C 5,0 C 99 % 1013,2 hPa 0,0 l/m 0 min 0 min 0 W/m 19,3 km/h (3 Bft) 100,00 %
18.11.2023 19:26 7,6 C 6,7 C 5,0 C 99 % 1013,3 hPa 0,0 l/m 0 min 0 min 0 W/m 16,1 km/h (3 Bft) 100,00 %
18.11.2023 19:28 7,6 C 6,7 C 5,0 C 99 % 1013,2 hPa 0,0 l/m 0 min 0 min 0 W/m 16,1 km/h (3 Bft) 100,00 %
18.11.2023 19:30 7,6 C 6,7 C 5,0 C 99 % 1013,2 hPa 0,0 l/m 0 min 0 min 0 W/m 12,9 km/h (3 Bft) 100,00 %
18.11.2023 19:32 7,7 C 6,7 C 5,0 C 99 % 1013,1 hPa 0,0 l/m 0 min 0 min 0 W/m 16,1 km/h (3 Bft) 100,00 %
18.11.2023 19:34 7,7 C 6,7 C 5,0 C 99 % 1013,1 hPa 0,0 l/m 0 min 0 min 0 W/m 12,9 km/h (3 Bft) 100,00 %
18.11.2023 19:36 7,7 C 6,7 C 5,0 C 99 % 1013,1 hPa 0,0 l/m 0 min 0 min 0 W/m 16,1 km/h (3 Bft) 100,00 %
18.11.2023 19:38 7,7 C 6,7 C 5,0 C 99 % 1013,0 hPa 0,0 l/m 0 min 0 min 0 W/m 12,9 km/h (3 Bft) 97,87 %
18.11.2023 19:40 7,7 C 7,2 C 5,0 C 99 % 1012,9 hPa 0,0 l/m 0 min 0 min 0 W/m 16,1 km/h (3 Bft) 100,00 %
18.11.2023 19:42 7,7 C 7,2 C 5,0 C 99 % 1013,0 hPa 0,0 l/m 0 min 0 min 0 W/m 16,1 km/h (3 Bft) 97,87 %
18.11.2023 19:44 7,7 C 7,2 C 5,0 C 99 % 1013,0 hPa 0,0 l/m 0 min 0 min 0 W/m 12,9 km/h (3 Bft) 100,00 %
18.11.2023 19:46 7,8 C 7,2 C 5,0 C 99 % 1013,1 hPa 0,0 l/m 0 min 0 min 0 W/m 6,4 km/h (2 Bft) 100,00 %
18.11.2023 19:48 7,8 C 7,2 C 5,0 C 99 % 1013,1 hPa 0,0 l/m 0 min 0 min 0 W/m 16,1 km/h (3 Bft) 100,00 %
18.11.2023 19:50 7,8 C 7,2 C 5,0 C 99 % 1013,2 hPa 0,0 l/m 0 min 0 min 0 W/m 19,3 km/h (3 Bft) 100,00 %
18.11.2023 19:52 7,8 C 7,2 C 5,0 C 99 % 1013,1 hPa 0,0 l/m 0 min 0 min 0 W/m 19,3 km/h (3 Bft) 100,00 %
18.11.2023 19:54 7,8 C 7,2 C 5,0 C 99 % 1013,1 hPa 0,0 l/m 0 min 0 min 0 W/m 9,7 km/h (2 Bft) 97,87 %
18.11.2023 19:56 7,8 C 7,2 C 5,0 C 99 % 1013,1 hPa 0,0 l/m 0 min 0 min 0 W/m 19,3 km/h (3 Bft) 100,00 %
18.11.2023 19:58 7,8 C 7,2 C 5,0 C 99 % 1013,1 hPa 0,0 l/m 0 min 0 min 0 W/m 16,1 km/h (3 Bft) 100,00 %
18.11.2023 20:00 7,8 C 7,2 C 5,0 C 99 % 1013,2 hPa 0,2 l/m 0 min 0 min 0 W/m 12,9 km/h (3 Bft) 97,87 %
18.11.2023 20:02 7,9 C 7,2 C 5,0 C 99 % 1013,2 hPa 0,0 l/m 0 min 0 min 0 W/m 12,9 km/h (3 Bft) 97,92 %
18.11.2023 20:04 7,9 C 7,2 C 5,6 C 99 % 1013,2 hPa 0,0 l/m 0 min 0 min 0 W/m 16,1 km/h (3 Bft) 97,87 %
18.11.2023 20:08 7,9 C 7,2 C 5,6 C 99 % 1013,0 hPa 0,0 l/m 0 min 0 min 0 W/m 16,1 km/h (3 Bft) 98,95 %
18.11.2023 20:10 7,9 C 7,2 C 5,6 C 99 % 1013,0 hPa 0,0 l/m 0 min 0 min 0 W/m 12,9 km/h (3 Bft) 100,00 %
18.11.2023 20:12 8,0 C 7,2 C 5,6 C 99 % 1013,1 hPa 0,0 l/m 0 min 2 min 0 W/m 6,4 km/h (2 Bft) 100,00 %
18.11.2023 20:14 8,0 C 7,2 C 5,6 C 99 % 1013,0 hPa 0,0 l/m 0 min 0 min 0 W/m 19,3 km/h (3 Bft) 100,00 %
18.11.2023 20:16 8,0 C 7,2 C 5,6 C 99 % 1013,0 hPa 0,0 l/m 0 min 0 min 0 W/m 12,9 km/h (3 Bft) 100,00 %
18.11.2023 20:18 8,0 C 7,2 C 5,6 C 99 % 1013,0 hPa 0,0 l/m 0 min 0 min 0 W/m 19,3 km/h (3 Bft) 100,00 %
18.11.2023 20:20 8,0 C 7,2 C 5,6 C 99 % 1012,9 hPa 0,0 l/m 0 min 2 min 0 W/m 12,9 km/h (3 Bft) 100,00 %
18.11.2023 20:22 8,1 C 7,2 C 5,6 C 99 % 1012,9 hPa 0,0 l/m 0 min 0 min 0 W/m 12,9 km/h (3 Bft) 100,00 %
18.11.2023 20:24 8,1 C 7,2 C 5,6 C 99 % 1012,9 hPa 0,0 l/m 0 min 0 min 0 W/m 12,9 km/h (3 Bft) 100,00 %
18.11.2023 20:26 8,1 C 7,2 C 5,6 C 99 % 1012,9 hPa 0,0 l/m 0 min 0 min 0 W/m 9,7 km/h (2 Bft) 100,00 %
18.11.2023 20:28 8,1 C 7,2 C 5,6 C 99 % 1012,9 hPa 0,0 l/m 0 min 0 min 0 W/m 12,9 km/h (3 Bft) 100,00 %
18.11.2023 20:30 8,1 C 7,2 C 5,6 C 99 % 1012,9 hPa 0,0 l/m 0 min 0 min 0 W/m 6,4 km/h (2 Bft) 100,00 %
18.11.2023 20:32 8,1 C 7,2 C 5,6 C 99 % 1012,9 hPa 0,0 l/m 0 min 0 min 0 W/m 16,1 km/h (3 Bft) 100,00 %
18.11.2023 20:34 8,1 C 7,2 C 5,6 C 99 % 1012,9 hPa 0,2 l/m 0 min 0 min 0 W/m 3,2 km/h (1 Bft) 97,87 %
18.11.2023 20:36 8,1 C 7,2 C 5,6 C 99 % 1012,8 hPa 0,0 l/m 0 min 0 min 0 W/m 16,1 km/h (3 Bft) 100,00 %
18.11.2023 20:38 8,1 C 7,2 C 5,6 C 99 % 1012,8 hPa 0,0 l/m 0 min 0 min 0 W/m 16,1 km/h (3 Bft) 100,00 %
18.11.2023 20:40 8,2 C 7,2 C 5,6 C 99 % 1012,7 hPa 0,0 l/m 0 min 0 min 0 W/m 6,4 km/h (2 Bft) 100,00 %
18.11.2023 20:42 8,2 C 7,2 C 5,6 C 99 % 1012,7 hPa 0,0 l/m 0 min 0 min 0 W/m 9,7 km/h (2 Bft) 91,49 %
18.11.2023 20:44 8,2 C 7,8 C 5,6 C 99 % 1012,7 hPa 0,0 l/m 0 min 0 min 0 W/m 12,9 km/h (3 Bft) 95,74 %
18.11.2023 20:46 8,2 C 7,8 C 5,6 C 99 % 1012,7 hPa 0,0 l/m 0 min 0 min 0 W/m 6,4 km/h (2 Bft) 95,65 %
18.11.2023 20:48 8,2 C 7,8 C 5,6 C 99 % 1012,6 hPa 0,0 l/m 0 min 2 min 0 W/m 12,9 km/h (3 Bft) 95,74 %
18.11.2023 20:50 8,3 C 7,8 C 5,6 C 99 % 1012,6 hPa 0,0 l/m 0 min 0 min 0 W/m 16,1 km/h (3 Bft) 93,62 %
18.11.2023 20:52 8,3 C 7,8 C 5,6 C 99 % 1012,6 hPa 0,0 l/m 0 min 0 min 0 W/m 12,9 km/h (3 Bft) 93,62 %
18.11.2023 20:54 8,3 C 7,8 C 5,6 C 100 % 1012,6 hPa 0,0 l/m 0 min 0 min 0 W/m 12,9 km/h (3 Bft) 95,74 %
18.11.2023 20:56 8,3 C 7,8 C 5,6 C 100 % 1012,6 hPa 0,0 l/m 0 min 0 min 0 W/m 12,9 km/h (3 Bft) 91,49 %
18.11.2023 20:58 8,3 C 7,8 C 5,6 C 100 % 1012,6 hPa 0,0 l/m 0 min 0 min 0 W/m 6,4 km/h (2 Bft) 93,62 %
18.11.2023 21:00 8,3 C 7,8 C 5,6 C 100 % 1012,5 hPa 0,0 l/m 0 min 0 min 0 W/m 16,1 km/h (3 Bft) 93,62 %
18.11.2023 21:02 8,4 C 7,8 C 5,6 C 100 % 1012,5 hPa 0,0 l/m 0 min 0 min 0 W/m 12,9 km/h (3 Bft) 91,30 %
18.11.2023 21:04 8,4 C 7,8 C 5,6 C 99 % 1012,5 hPa 0,0 l/m 0 min 0 min 0 W/m 9,7 km/h (2 Bft) 96,15 %
18.11.2023 21:06 8,4 C 7,8 C 5,6 C 99 % 1012,4 hPa 0,0 l/m 0 min 0 min 0 W/m 12,9 km/h (3 Bft) 89,58 %
18.11.2023 21:08 8,4 C 7,8 C 6,1 C 99 % 1012,3 hPa 0,0 l/m 0 min 0 min 0 W/m 16,1 km/h (3 Bft) 93,62 %
18.11.2023 21:10 8,5 C 7,8 C 6,1 C 99 % 1012,2 hPa 0,0 l/m 0 min 0 min 0 W/m 12,9 km/h (3 Bft) 91,49 %
18.11.2023 21:16 8,6 C 7,8 C 6,1 C 99 % 1012,2 hPa 0,0 l/m 0 min 0 min 0 W/m 16,1 km/h (3 Bft) 96,83 %
18.11.2023 21:18 8,6 C 7,8 C 6,1 C 99 % 1012,1 hPa 0,0 l/m 0 min 0 min 0 W/m 12,9 km/h (3 Bft) 94,29 %
18.11.2023 21:20 8,6 C 7,8 C 6,1 C 100 % 1012,1 hPa 0,0 l/m 0 min 0 min 0 W/m 12,9 km/h (3 Bft) 95,74 %
18.11.2023 21:22 8,6 C 7,8 C 6,1 C 100 % 1012,1 hPa 0,0 l/m 0 min 0 min 0 W/m 6,4 km/h (2 Bft) 97,87 %
18.11.2023 21:24 8,6 C 7,8 C 6,1 C 100 % 1012,0 hPa 0,0 l/m 0 min 0 min 0 W/m 6,4 km/h (2 Bft) 94,34 %
18.11.2023 21:26 8,6 C 7,8 C 6,1 C 100 % 1012,0 hPa 0,0 l/m 0 min 0 min 0 W/m 12,9 km/h (3 Bft) 95,74 %
18.11.2023 21:28 8,6 C 7,8 C 6,1 C 100 % 1012,0 hPa 0,0 l/m 0 min 0 min 0 W/m 12,9 km/h (3 Bft) 95,74 %
18.11.2023 21:30 8,7 C 7,8 C 6,1 C 100 % 1012,0 hPa 0,0 l/m 0 min 0 min 0 W/m 12,9 km/h (3 Bft) 97,83 %
18.11.2023 21:32 8,7 C 7,8 C 6,1 C 100 % 1011,9 hPa 0,0 l/m 0 min 0 min 0 W/m 3,2 km/h (1 Bft) 97,92 %
18.11.2023 21:34 8,7 C 7,8 C 6,1 C 100 % 1011,9 hPa 0,0 l/m 0 min 0 min 0 W/m 6,4 km/h (2 Bft) 95,74 %
18.11.2023 21:36 8,8 C 8,3 C 6,1 C 100 % 1011,8 hPa 0,0 l/m 0 min 0 min 0 W/m 19,3 km/h (3 Bft) 95,74 %
18.11.2023 21:38 8,8 C 8,3 C 6,1 C 100 % 1011,8 hPa 0,0 l/m 0 min 0 min 0 W/m 12,9 km/h (3 Bft) 95,74 %
18.11.2023 21:40 8,8 C 8,3 C 6,1 C 100 % 1011,9 hPa 0,0 l/m 0 min 0 min 0 W/m 3,2 km/h (1 Bft) 97,87 %
18.11.2023 21:42 8,8 C 8,3 C 6,1 C 100 % 1011,9 hPa 0,0 l/m 0 min 0 min 0 W/m 6,4 km/h (2 Bft) 93,62 %
18.11.2023 21:44 8,9 C 8,3 C 6,1 C 100 % 1011,8 hPa 0,0 l/m 0 min 0 min 0 W/m 6,4 km/h (2 Bft) 100,00 %
18.11.2023 21:46 8,9 C 8,3 C 6,1 C 100 % 1011,7 hPa 0,0 l/m 0 min 0 min 0 W/m 6,4 km/h (2 Bft) 100,00 %
18.11.2023 21:48 8,9 C 8,3 C 6,1 C 100 % 1011,8 hPa 0,0 l/m 0 min 0 min 0 W/m 9,7 km/h (2 Bft) 100,00 %
18.11.2023 21:50 9,0 C 8,3 C 6,7 C 100 % 1011,9 hPa 0,0 l/m 0 min 0 min 0 W/m 6,4 km/h (2 Bft) 100,00 %
18.11.2023 21:52 9,0 C 8,3 C 6,7 C 100 % 1011,9 hPa 0,0 l/m 0 min 0 min 0 W/m 6,4 km/h (2 Bft) 97,87 %
18.11.2023 21:54 9,1 C 8,3 C 6,7 C 100 % 1011,8 hPa 0,0 l/m 0 min 0 min 0 W/m 6,4 km/h (2 Bft) 100,00 %
18.11.2023 21:56 9,1 C 8,3 C 6,7 C 100 % 1011,8 hPa 0,0 l/m 0 min 0 min 0 W/m 6,4 km/h (2 Bft) 100,00 %
18.11.2023 21:58 9,1 C 8,3 C 6,7 C 100 % 1011,8 hPa 0,0 l/m 0 min 0 min 0 W/m 12,9 km/h (3 Bft) 97,83 %
18.11.2023 22:00 9,1 C 8,3 C 6,7 C 100 % 1011,8 hPa 0,0 l/m 0 min 0 min 0 W/m 12,9 km/h (3 Bft) 97,87 %
18.11.2023 22:02 9,2 C 8,3 C 6,7 C 100 % 1011,8 hPa 0,0 l/m 0 min 0 min 0 W/m 3,2 km/h (1 Bft) 100,00 %
18.11.2023 22:04 9,2 C 8,3 C 6,7 C 100 % 1011,9 hPa 0,0 l/m 0 min 0 min 0 W/m 3,2 km/h (1 Bft) 97,62 %
18.11.2023 22:06 9,2 C 8,3 C 6,7 C 100 % 1011,9 hPa 0,0 l/m 0 min 0 min 0 W/m 0,0 km/h (0 Bft) 100,00 %
18.11.2023 22:08 9,2 C 8,3 C 6,7 C 100 % 1011,8 hPa 0,0 l/m 0 min 0 min 0 W/m 6,4 km/h (2 Bft) 100,00 %
18.11.2023 22:10 9,1 C 8,3 C 6,7 C 100 % 1011,8 hPa 0,0 l/m 0 min 0 min 0 W/m 3,2 km/h (1 Bft) 100,00 %
18.11.2023 22:12 9,1 C 8,3 C 6,7 C 100 % 1011,8 hPa 0,0 l/m 0 min 0 min 0 W/m 6,4 km/h (2 Bft) 100,00 %
18.11.2023 22:14 9,1 C 8,3 C 6,7 C 100 % 1011,9 hPa 0,0 l/m 0 min 0 min 0 W/m 6,4 km/h (2 Bft) 100,00 %
18.11.2023 22:16 9,1 C 8,3 C 6,7 C 100 % 1011,8 hPa 0,0 l/m 0 min 0 min 0 W/m 3,2 km/h (1 Bft) 100,00 %
18.11.2023 22:18 9,1 C 8,3 C 6,7 C 100 % 1011,7 hPa 0,0 l/m 0 min 0 min 0 W/m 3,2 km/h (1 Bft) 97,87 %
18.11.2023 22:20 9,1 C 8,3 C 6,1 C 100 % 1011,7 hPa 0,0 l/m 0 min 0 min 0 W/m 3,2 km/h (1 Bft) 100,00 %
18.11.2023 22:22 9,1 C 8,3 C 6,1 C 100 % 1011,7 hPa 0,0 l/m 0 min 0 min 0 W/m 6,4 km/h (2 Bft) 98,28 %
18.11.2023 22:24 9,0 C 8,3 C 6,1 C 100 % 1011,6 hPa 0,0 l/m 0 min 0 min 0 W/m 6,4 km/h (2 Bft) 100,00 %
18.11.2023 22:26 9,0 C 8,3 C 6,1 C 100 % 1011,5 hPa 0,0 l/m 0 min 0 min 0 W/m 6,4 km/h (2 Bft) 100,00 %
18.11.2023 22:28 8,9 C 8,3 C 6,1 C 100 % 1011,7 hPa 0,0 l/m 0 min 0 min 0 W/m 6,4 km/h (2 Bft) 100,00 %
18.11.2023 22:30 8,9 C 8,3 C 6,1 C 100 % 1011,6 hPa 0,0 l/m 0 min 0 min 0 W/m 6,4 km/h (2 Bft) 100,00 %
18.11.2023 22:32 8,9 C 8,3 C 6,1 C 100 % 1011,5 hPa 0,0 l/m 0 min 0 min 0 W/m 6,4 km/h (2 Bft) 100,00 %
18.11.2023 22:34 8,9 C 8,3 C 6,1 C 100 % 1011,5 hPa 0,0 l/m 0 min 0 min 0 W/m 6,4 km/h (2 Bft) 100,00 %
18.11.2023 22:36 8,9 C 8,3 C 6,7 C 100 % 1011,6 hPa 0,0 l/m 0 min 0 min 0 W/m 6,4 km/h (2 Bft) 100,00 %
18.11.2023 22:38 8,9 C 8,3 C 6,1 C 100 % 1011,5 hPa 0,0 l/m 0 min 0 min 0 W/m 12,9 km/h (3 Bft) 97,87 %
18.11.2023 22:40 8,9 C 8,3 C 6,1 C 100 % 1011,5 hPa 0,0 l/m 0 min 0 min 0 W/m 3,2 km/h (1 Bft) 95,74 %
18.11.2023 22:42 8,9 C 8,3 C 6,7 C 100 % 1011,5 hPa 0,0 l/m 0 min 0 min 0 W/m 6,4 km/h (2 Bft) 97,83 %
18.11.2023 22:44 8,9 C 8,3 C 6,7 C 100 % 1011,5 hPa 0,0 l/m 0 min 0 min 0 W/m 0,0 km/h (0 Bft) 93,62 %
18.11.2023 22:46 8,9 C 8,3 C 6,7 C 100 % 1011,4 hPa 0,0 l/m 0 min 0 min 0 W/m 3,2 km/h (1 Bft) 95,74 %
18.11.2023 22:48 8,9 C 8,3 C 6,7 C 100 % 1011,4 hPa 0,0 l/m 0 min 0 min 0 W/m 6,4 km/h (2 Bft) 100,00 %
18.11.2023 22:50 9,0 C 8,3 C 6,7 C 100 % 1011,4 hPa 0,0 l/m 0 min 0 min 0 W/m 0,0 km/h (0 Bft) 94,23 %
18.11.2023 22:52 9,1 C 8,3 C 6,7 C 100 % 1011,4 hPa 0,0 l/m 0 min 0 min 0 W/m 0,0 km/h (0 Bft) 97,87 %
18.11.2023 22:54 9,1 C 8,3 C 6,7 C 100 % 1011,3 hPa 0,0 l/m 0 min 0 min 0 W/m 3,2 km/h (1 Bft) 93,62 %
18.11.2023 22:56 9,1 C 8,3 C 6,7 C 100 % 1011,3 hPa 0,0 l/m 0 min 0 min 0 W/m 6,4 km/h (2 Bft) 97,92 %
18.11.2023 22:58 9,2 C 8,9 C 6,7 C 100 % 1011,3 hPa 0,0 l/m 0 min 0 min 0 W/m 6,4 km/h (2 Bft) 97,87 %
18.11.2023 23:00 9,3 C 8,9 C 6,7 C 100 % 1011,4 hPa 0,0 l/m 0 min 0 min 0 W/m 3,2 km/h (1 Bft) 97,83 %
18.11.2023 23:02 9,3 C 8,9 C 6,7 C 100 % 1011,3 hPa 0,0 l/m 0 min 0 min 0 W/m 3,2 km/h (1 Bft) 97,87 %
18.11.2023 23:04 9,3 C 8,9 C 6,7 C 100 % 1011,3 hPa 0,0 l/m 0 min 0 min 0 W/m 6,4 km/h (2 Bft) 97,62 %
18.11.2023 23:08 9,4 C 8,9 C 6,7 C 100 % 1011,3 hPa 0,0 l/m 0 min 0 min 0 W/m 6,4 km/h (2 Bft) 98,06 %
18.11.2023 23:09 9,4 C 8,9 C 6,7 C 100 % 1011,3 hPa 0,0 l/m 0 min 0 min 0 W/m 0,0 km/h (0 Bft) 95,65 %
18.11.2023 23:10 9,4 C 8,9 C 6,7 C 100 % 1011,3 hPa 0,0 l/m 0 min 0 min 0 W/m 6,4 km/h (2 Bft) 99,12 %
18.11.2023 23:14 9,4 C 8,9 C 6,7 C 100 % 1011,3 hPa 0,0 l/m 0 min 0 min 0 W/m 3,2 km/h (1 Bft) 100,00 %
18.11.2023 23:16 9,4 C 8,9 C 6,7 C 100 % 1011,4 hPa 0,0 l/m 0 min 0 min 0 W/m 3,2 km/h (1 Bft) 100,00 %
18.11.2023 23:18 9,5 C 8,9 C 6,7 C 100 % 1011,4 hPa 0,0 l/m 0 min 0 min 0 W/m 6,4 km/h (2 Bft) 100,00 %
18.11.2023 23:20 9,5 C 9,4 C 7,2 C 100 % 1011,3 hPa 0,0 l/m 0 min 0 min 0 W/m 3,2 km/h (1 Bft) 47,50 %
18.11.2023 23:22 9,7 C 9,4 C 7,2 C 100 % 1011,2 hPa 0,0 l/m 0 min 0 min 0 W/m 12,9 km/h (3 Bft) 100,00 %
18.11.2023 23:24 9,9 C 9,4 C 7,2 C 100 % 1011,3 hPa 0,0 l/m 0 min 0 min 0 W/m 16,1 km/h (3 Bft) 100,00 %
18.11.2023 23:26 10,1 C 10,0 C 7,8 C 100 % 1011,3 hPa 0,0 l/m 0 min 0 min 0 W/m 16,1 km/h (3 Bft) 100,00 %
18.11.2023 23:28 10,2 C 10,0 C 7,8 C 100 % 1011,2 hPa 0,2 l/m 0 min 2 min 0 W/m 22,5 km/h (4 Bft) 95,74 %
18.11.2023 23:30 10,4 C 10,0 C 7,8 C 100 % 1011,2 hPa 0,0 l/m 0 min 0 min 0 W/m 19,3 km/h (3 Bft) 97,87 %
18.11.2023 23:32 10,6 C 10,0 C 7,8 C 100 % 1011,0 hPa 0,0 l/m 0 min 0 min 0 W/m 12,9 km/h (3 Bft) 97,83 %
18.11.2023 23:34 10,7 C 10,0 C 7,8 C 100 % 1011,1 hPa 0,0 l/m 0 min 2 min 0 W/m 16,1 km/h (3 Bft) 97,87 %
18.11.2023 23:36 10,7 C 10,0 C 7,8 C 100 % 1011,1 hPa 0,0 l/m 0 min 2 min 0 W/m 12,9 km/h (3 Bft) 97,87 %
18.11.2023 23:38 10,8 C 10,0 C 7,8 C 100 % 1011,1 hPa 0,0 l/m 0 min 0 min 0 W/m 16,1 km/h (3 Bft) 97,87 %
18.11.2023 23:40 10,8 C 10,0 C 7,8 C 100 % 1011,1 hPa 0,0 l/m 0 min 0 min 0 W/m 16,1 km/h (3 Bft) 95,74 %
18.11.2023 23:42 10,8 C 10,0 C 7,8 C 100 % 1011,0 hPa 0,0 l/m 0 min 0 min 0 W/m 16,1 km/h (3 Bft) 93,62 %
18.11.2023 23:44 10,9 C 10,0 C 7,8 C 100 % 1011,0 hPa 0,0 l/m 0 min 0 min 0 W/m 19,3 km/h (3 Bft) 95,74 %
18.11.2023 23:46 10,9 C 10,0 C 8,3 C 100 % 1010,9 hPa 0,0 l/m 0 min 2 min 0 W/m 19,3 km/h (3 Bft) 95,65 %
18.11.2023 23:48 10,9 C 10,0 C 8,3 C 100 % 1010,8 hPa 0,0 l/m 0 min 2 min 0 W/m 9,7 km/h (2 Bft) 93,62 %
18.11.2023 23:50 10,9 C 10,0 C 8,3 C 100 % 1010,7 hPa 0,0 l/m 0 min 0 min 0 W/m 16,1 km/h (3 Bft) 95,74 %
18.11.2023 23:52 11,0 C 10,6 C 8,3 C 100 % 1010,8 hPa 0,0 l/m 0 min 0 min 0 W/m 29,0 km/h (5 Bft) 93,62 %
18.11.2023 23:54 11,0 C 10,6 C 8,3 C 100 % 1010,7 hPa 0,0 l/m 0 min 0 min 0 W/m 16,1 km/h (3 Bft) 94,64 %
18.11.2023 23:56 11,0 C 10,6 C 8,3 C 100 % 1010,7 hPa 0,0 l/m 0 min 0 min 0 W/m 22,5 km/h (4 Bft) 91,49 %
18.11.2023 23:58 11,1 C 10,6 C 8,3 C 100 % 1010,8 hPa 0,0 l/m 0 min 0 min 0 W/m 12,9 km/h (3 Bft) 95,74 %
_ Min-Zeit 03:24 00:00 00:00 12:28 23:50 - - - - 02:36 13:30
Minimum _ 3,7 C 3,3 C 1,7 C 97 % 1010,7 hPa - - - - 0,0 km/h (0 Bft) 35,48 %
_ Max-Zeit 23:58 23:52 23:46 20:54 02:35 17:10 00:00 17:10 12:32 16:34 01:09
Maximum _ 11,1 C 10,6 C 8,3 C 100 % 1025,3 hPa 0,6 l/m 0 min 5 min 64 W/m 35,4 km/h
S-SO (5 Bft)
100,00 %
Durchschnitt _ 6,1 C 5,5 C 3,6 C 98 % 1019,4 hPa #10,0 l/m #0 min. #3:41 h 35 W/m 13,3 km/h (3 Bft) 97,13 %
© 2023 W. Hausmann